<?xml version="1.0" encoding="UTF-8" standalone="no" ?>
<gpx xmlns="http://www.topografix.com/GPX/1/1" xmlns:xsi="http://www.w3.org/2001/XMLSchema-instance" xsi:schemaLocation="http://www.topografix.com/GPX/1/1 http://www.topografix.com/GPX/1/1/gpx.xsd" version="1.1" creator="VisuGPX - https://www.visugpx.com">
  <metadata>
    <name>jouhes</name>
    <desc><![CDATA[Bonne petite rando automnale]]></desc>
  </metadata>
  <trk>
    <name><![CDATA[jouhes2]]></name>
    <trkseg>
      <trkpt lat="47.1393" lon="5.48818">
        <ele>161.638916</ele>
        <time>2012-11-22T13:41:25Z</time>
      </trkpt>
      <trkpt lat="47.1392" lon="5.48827">
        <ele>162.119507</ele>
        <time>2012-11-22T13:42:20Z</time>
      </trkpt>
      <trkpt lat="47.13924" lon="5.48837">
        <ele>162.600098</ele>
        <time>2012-11-22T13:42:36Z</time>
      </trkpt>
      <trkpt lat="47.13925" lon="5.48842">
        <ele>162.119507</ele>
        <time>2012-11-22T13:42:42Z</time>
      </trkpt>
      <trkpt lat="47.1393" lon="5.48844">
        <ele>162.600098</ele>
        <time>2012-11-22T13:42:57Z</time>
      </trkpt>
      <trkpt lat="47.13929" lon="5.48848">
        <ele>165.484131</ele>
        <time>2012-11-22T13:44:48Z</time>
      </trkpt>
      <trkpt lat="47.13929" lon="5.48849">
        <ele>165.484131</ele>
        <time>2012-11-22T13:45:13Z</time>
      </trkpt>
      <trkpt lat="47.13928" lon="5.48851">
        <ele>166.926025</ele>
        <time>2012-11-22T13:48:34Z</time>
      </trkpt>
      <trkpt lat="47.13928" lon="5.48851">
        <ele>173.655273</ele>
        <time>2012-11-22T13:49:03Z</time>
      </trkpt>
      <trkpt lat="47.13928" lon="5.48851">
        <ele>173.655273</ele>
        <time>2012-11-22T13:49:04Z</time>
      </trkpt>
      <trkpt lat="47.13928" lon="5.48851">
        <ele>222.201782</ele>
        <time>2012-11-22T13:49:05Z</time>
      </trkpt>
      <trkpt lat="47.13928" lon="5.48851">
        <ele>220.759888</ele>
        <time>2012-11-22T13:50:12Z</time>
      </trkpt>
      <trkpt lat="47.13928" lon="5.48855">
        <ele>219.798584</ele>
        <time>2012-11-22T13:50:36Z</time>
      </trkpt>
      <trkpt lat="47.13928" lon="5.48858">
        <ele>217.875977</ele>
        <time>2012-11-22T13:52:10Z</time>
      </trkpt>
      <trkpt lat="47.13927" lon="5.48863">
        <ele>214.51123</ele>
        <time>2012-11-22T13:53:46Z</time>
      </trkpt>
      <trkpt lat="47.13927" lon="5.48864">
        <ele>215.953247</ele>
        <time>2012-11-22T13:53:49Z</time>
      </trkpt>
      <trkpt lat="47.13925" lon="5.4888">
        <ele>215.472656</ele>
        <time>2012-11-22T13:54:05Z</time>
      </trkpt>
      <trkpt lat="47.13925" lon="5.48889">
        <ele>215.472656</ele>
        <time>2012-11-22T13:54:12Z</time>
      </trkpt>
      <trkpt lat="47.13931" lon="5.48913">
        <ele>215.472656</ele>
        <time>2012-11-22T13:54:32Z</time>
      </trkpt>
      <trkpt lat="47.13938" lon="5.48931">
        <ele>215.472656</ele>
        <time>2012-11-22T13:54:44Z</time>
      </trkpt>
      <trkpt lat="47.13957" lon="5.48952">
        <ele>215.472656</ele>
        <time>2012-11-22T13:55:03Z</time>
      </trkpt>
      <trkpt lat="47.13981" lon="5.48965">
        <ele>215.472656</ele>
        <time>2012-11-22T13:55:23Z</time>
      </trkpt>
      <trkpt lat="47.13999" lon="5.48959">
        <ele>215.953247</ele>
        <time>2012-11-22T13:55:38Z</time>
      </trkpt>
      <trkpt lat="47.14017" lon="5.48951">
        <ele>216.43396</ele>
        <time>2012-11-22T13:55:55Z</time>
      </trkpt>
      <trkpt lat="47.14036" lon="5.48961">
        <ele>217.395386</ele>
        <time>2012-11-22T13:56:12Z</time>
      </trkpt>
      <trkpt lat="47.14047" lon="5.48983">
        <ele>216.914673</ele>
        <time>2012-11-22T13:56:25Z</time>
      </trkpt>
      <trkpt lat="47.14052" lon="5.48983">
        <ele>217.395386</ele>
        <time>2012-11-22T13:56:28Z</time>
      </trkpt>
      <trkpt lat="47.14065" lon="5.48965">
        <ele>217.875977</ele>
        <time>2012-11-22T13:56:39Z</time>
      </trkpt>
      <trkpt lat="47.14072" lon="5.48958">
        <ele>218.356567</ele>
        <time>2012-11-22T13:56:45Z</time>
      </trkpt>
      <trkpt lat="47.14064" lon="5.48948">
        <ele>218.356567</ele>
        <time>2012-11-22T13:56:49Z</time>
      </trkpt>
      <trkpt lat="47.14061" lon="5.48943">
        <ele>218.356567</ele>
        <time>2012-11-22T13:56:52Z</time>
      </trkpt>
      <trkpt lat="47.14054" lon="5.48932">
        <ele>219.317993</ele>
        <time>2012-11-22T13:57:02Z</time>
      </trkpt>
      <trkpt lat="47.14048" lon="5.4889">
        <ele>222.201782</ele>
        <time>2012-11-22T13:57:24Z</time>
      </trkpt>
      <trkpt lat="47.14048" lon="5.48885">
        <ele>222.682495</ele>
        <time>2012-11-22T13:57:28Z</time>
      </trkpt>
      <trkpt lat="47.14053" lon="5.48876">
        <ele>223.643799</ele>
        <time>2012-11-22T13:57:35Z</time>
      </trkpt>
      <trkpt lat="47.14066" lon="5.4887">
        <ele>225.085938</ele>
        <time>2012-11-22T13:57:46Z</time>
      </trkpt>
      <trkpt lat="47.14071" lon="5.48867">
        <ele>225.085938</ele>
        <time>2012-11-22T13:57:50Z</time>
      </trkpt>
      <trkpt lat="47.14075" lon="5.48865">
        <ele>224.605225</ele>
        <time>2012-11-22T13:57:54Z</time>
      </trkpt>
      <trkpt lat="47.14079" lon="5.4886">
        <ele>223.643799</ele>
        <time>2012-11-22T13:57:59Z</time>
      </trkpt>
      <trkpt lat="47.14086" lon="5.48862">
        <ele>223.643799</ele>
        <time>2012-11-22T13:58:02Z</time>
      </trkpt>
      <trkpt lat="47.14089" lon="5.48855">
        <ele>223.643799</ele>
        <time>2012-11-22T13:58:06Z</time>
      </trkpt>
      <trkpt lat="47.14097" lon="5.48815">
        <ele>226.047119</ele>
        <time>2012-11-22T13:58:28Z</time>
      </trkpt>
      <trkpt lat="47.14099" lon="5.48773">
        <ele>227.969727</ele>
        <time>2012-11-22T13:58:50Z</time>
      </trkpt>
      <trkpt lat="47.14101" lon="5.48721">
        <ele>229.892334</ele>
        <time>2012-11-22T13:59:16Z</time>
      </trkpt>
      <trkpt lat="47.14101" lon="5.48674">
        <ele>230.373047</ele>
        <time>2012-11-22T13:59:40Z</time>
      </trkpt>
      <trkpt lat="47.14104" lon="5.48632">
        <ele>230.373047</ele>
        <time>2012-11-22T14:00:02Z</time>
      </trkpt>
      <trkpt lat="47.1411" lon="5.48593">
        <ele>230.373047</ele>
        <time>2012-11-22T14:00:21Z</time>
      </trkpt>
      <trkpt lat="47.1411" lon="5.48592">
        <ele>230.373047</ele>
        <time>2012-11-22T14:00:22Z</time>
      </trkpt>
      <trkpt lat="47.14121" lon="5.48586">
        <ele>230.373047</ele>
        <time>2012-11-22T14:00:31Z</time>
      </trkpt>
      <trkpt lat="47.14144" lon="5.48604">
        <ele>231.334351</ele>
        <time>2012-11-22T14:00:50Z</time>
      </trkpt>
      <trkpt lat="47.14148" lon="5.48607">
        <ele>231.334351</ele>
        <time>2012-11-22T14:00:53Z</time>
      </trkpt>
      <trkpt lat="47.14168" lon="5.48633">
        <ele>232.295776</ele>
        <time>2012-11-22T14:01:12Z</time>
      </trkpt>
      <trkpt lat="47.14186" lon="5.48656">
        <ele>233.25708</ele>
        <time>2012-11-22T14:01:30Z</time>
      </trkpt>
      <trkpt lat="47.14209" lon="5.48681">
        <ele>234.699097</ele>
        <time>2012-11-22T14:01:52Z</time>
      </trkpt>
      <trkpt lat="47.1422" lon="5.48693">
        <ele>235.660278</ele>
        <time>2012-11-22T14:02:04Z</time>
      </trkpt>
      <trkpt lat="47.14236" lon="5.48717">
        <ele>236.621704</ele>
        <time>2012-11-22T14:02:22Z</time>
      </trkpt>
      <trkpt lat="47.14238" lon="5.48719">
        <ele>236.621704</ele>
        <time>2012-11-22T14:02:24Z</time>
      </trkpt>
      <trkpt lat="47.14259" lon="5.48714">
        <ele>237.102295</ele>
        <time>2012-11-22T14:02:35Z</time>
      </trkpt>
      <trkpt lat="47.14264" lon="5.48714">
        <ele>237.102295</ele>
        <time>2012-11-22T14:02:38Z</time>
      </trkpt>
      <trkpt lat="47.14275" lon="5.48724">
        <ele>237.102295</ele>
        <time>2012-11-22T14:02:41Z</time>
      </trkpt>
      <trkpt lat="47.14278" lon="5.48725">
        <ele>237.582886</ele>
        <time>2012-11-22T14:02:43Z</time>
      </trkpt>
      <trkpt lat="47.14287" lon="5.487">
        <ele>238.063599</ele>
        <time>2012-11-22T14:02:57Z</time>
      </trkpt>
      <trkpt lat="47.1429" lon="5.48696">
        <ele>238.063599</ele>
        <time>2012-11-22T14:03:00Z</time>
      </trkpt>
      <trkpt lat="47.14295" lon="5.48693">
        <ele>238.063599</ele>
        <time>2012-11-22T14:03:04Z</time>
      </trkpt>
      <trkpt lat="47.14314" lon="5.48676">
        <ele>239.024902</ele>
        <time>2012-11-22T14:03:20Z</time>
      </trkpt>
      <trkpt lat="47.14318" lon="5.48667">
        <ele>239.024902</ele>
        <time>2012-11-22T14:03:26Z</time>
      </trkpt>
      <trkpt lat="47.14339" lon="5.4865">
        <ele>240.467041</ele>
        <time>2012-11-22T14:03:45Z</time>
      </trkpt>
      <trkpt lat="47.14349" lon="5.48645">
        <ele>240.947632</ele>
        <time>2012-11-22T14:03:53Z</time>
      </trkpt>
      <trkpt lat="47.14354" lon="5.48647">
        <ele>240.947632</ele>
        <time>2012-11-22T14:03:55Z</time>
      </trkpt>
      <trkpt lat="47.14358" lon="5.48644">
        <ele>241.428223</ele>
        <time>2012-11-22T14:03:59Z</time>
      </trkpt>
      <trkpt lat="47.14381" lon="5.48635">
        <ele>243.35083</ele>
        <time>2012-11-22T14:04:19Z</time>
      </trkpt>
      <trkpt lat="47.1439" lon="5.48637">
        <ele>242.870239</ele>
        <time>2012-11-22T14:04:30Z</time>
      </trkpt>
      <trkpt lat="47.14393" lon="5.48639">
        <ele>243.35083</ele>
        <time>2012-11-22T14:04:34Z</time>
      </trkpt>
      <trkpt lat="47.14408" lon="5.48661">
        <ele>243.831543</ele>
        <time>2012-11-22T14:04:52Z</time>
      </trkpt>
      <trkpt lat="47.14417" lon="5.48677">
        <ele>244.312256</ele>
        <time>2012-11-22T14:05:03Z</time>
      </trkpt>
      <trkpt lat="47.14433" lon="5.48699">
        <ele>244.792847</ele>
        <time>2012-11-22T14:05:21Z</time>
      </trkpt>
      <trkpt lat="47.14441" lon="5.48711">
        <ele>245.273438</ele>
        <time>2012-11-22T14:05:30Z</time>
      </trkpt>
      <trkpt lat="47.14466" lon="5.48735">
        <ele>247.676758</ele>
        <time>2012-11-22T14:05:56Z</time>
      </trkpt>
      <trkpt lat="47.14479" lon="5.48744">
        <ele>248.157593</ele>
        <time>2012-11-22T14:06:09Z</time>
      </trkpt>
      <trkpt lat="47.1449" lon="5.48756">
        <ele>248.638184</ele>
        <time>2012-11-22T14:06:20Z</time>
      </trkpt>
      <trkpt lat="47.14509" lon="5.48775">
        <ele>249.599487</ele>
        <time>2012-11-22T14:06:37Z</time>
      </trkpt>
      <trkpt lat="47.14516" lon="5.48783">
        <ele>249.599487</ele>
        <time>2012-11-22T14:06:44Z</time>
      </trkpt>
      <trkpt lat="47.14531" lon="5.48804">
        <ele>250.0802</ele>
        <time>2012-11-22T14:07:00Z</time>
      </trkpt>
      <trkpt lat="47.14553" lon="5.48831">
        <ele>251.522095</ele>
        <time>2012-11-22T14:07:23Z</time>
      </trkpt>
      <trkpt lat="47.14577" lon="5.48854">
        <ele>253.444702</ele>
        <time>2012-11-22T14:07:46Z</time>
      </trkpt>
      <trkpt lat="47.14599" lon="5.4887">
        <ele>255.36731</ele>
        <time>2012-11-22T14:08:08Z</time>
      </trkpt>
      <trkpt lat="47.14617" lon="5.48885">
        <ele>257.290039</ele>
        <time>2012-11-22T14:08:28Z</time>
      </trkpt>
      <trkpt lat="47.14638" lon="5.48912">
        <ele>259.212646</ele>
        <time>2012-11-22T14:08:53Z</time>
      </trkpt>
      <trkpt lat="47.1465" lon="5.48931">
        <ele>260.654541</ele>
        <time>2012-11-22T14:09:09Z</time>
      </trkpt>
      <trkpt lat="47.14656" lon="5.4894">
        <ele>261.615967</ele>
        <time>2012-11-22T14:09:18Z</time>
      </trkpt>
      <trkpt lat="47.14673" lon="5.48962">
        <ele>262.577148</ele>
        <time>2012-11-22T14:09:37Z</time>
      </trkpt>
      <trkpt lat="47.1469" lon="5.48995">
        <ele>263.057861</ele>
        <time>2012-11-22T14:09:59Z</time>
      </trkpt>
      <trkpt lat="47.14693" lon="5.49004">
        <ele>263.057861</ele>
        <time>2012-11-22T14:10:06Z</time>
      </trkpt>
      <trkpt lat="47.14708" lon="5.49032">
        <ele>264.019287</ele>
        <time>2012-11-22T14:10:27Z</time>
      </trkpt>
      <trkpt lat="47.14712" lon="5.49041">
        <ele>264.019287</ele>
        <time>2012-11-22T14:10:34Z</time>
      </trkpt>
      <trkpt lat="47.14725" lon="5.49068">
        <ele>263.057861</ele>
        <time>2012-11-22T14:10:52Z</time>
      </trkpt>
      <trkpt lat="47.14738" lon="5.49099">
        <ele>262.096558</ele>
        <time>2012-11-22T14:11:11Z</time>
      </trkpt>
      <trkpt lat="47.1474" lon="5.49099">
        <ele>262.096558</ele>
        <time>2012-11-22T14:11:25Z</time>
      </trkpt>
      <trkpt lat="47.14744" lon="5.49098">
        <ele>261.615967</ele>
        <time>2012-11-22T14:12:17Z</time>
      </trkpt>
      <trkpt lat="47.1475" lon="5.49105">
        <ele>261.135254</ele>
        <time>2012-11-22T14:12:24Z</time>
      </trkpt>
      <trkpt lat="47.14767" lon="5.49102">
        <ele>262.096558</ele>
        <time>2012-11-22T14:12:41Z</time>
      </trkpt>
      <trkpt lat="47.14774" lon="5.49095">
        <ele>263.538574</ele>
        <time>2012-11-22T14:12:49Z</time>
      </trkpt>
      <trkpt lat="47.14777" lon="5.49091">
        <ele>264.019287</ele>
        <time>2012-11-22T14:12:52Z</time>
      </trkpt>
      <trkpt lat="47.14805" lon="5.49068">
        <ele>265.941895</ele>
        <time>2012-11-22T14:13:18Z</time>
      </trkpt>
      <trkpt lat="47.1482" lon="5.49056">
        <ele>265.941895</ele>
        <time>2012-11-22T14:13:40Z</time>
      </trkpt>
      <trkpt lat="47.14843" lon="5.49047">
        <ele>265.461304</ele>
        <time>2012-11-22T14:14:02Z</time>
      </trkpt>
      <trkpt lat="47.14867" lon="5.4905">
        <ele>264.019287</ele>
        <time>2012-11-22T14:14:23Z</time>
      </trkpt>
      <trkpt lat="47.14909" lon="5.49059">
        <ele>262.096558</ele>
        <time>2012-11-22T14:14:57Z</time>
      </trkpt>
      <trkpt lat="47.14943" lon="5.49052">
        <ele>260.17395</ele>
        <time>2012-11-22T14:15:23Z</time>
      </trkpt>
      <trkpt lat="47.14972" lon="5.49039">
        <ele>257.770752</ele>
        <time>2012-11-22T14:15:45Z</time>
      </trkpt>
      <trkpt lat="47.14995" lon="5.49025">
        <ele>255.36731</ele>
        <time>2012-11-22T14:16:04Z</time>
      </trkpt>
      <trkpt lat="47.15016" lon="5.49007">
        <ele>253.925415</ele>
        <time>2012-11-22T14:16:23Z</time>
      </trkpt>
      <trkpt lat="47.15036" lon="5.48991">
        <ele>252.963989</ele>
        <time>2012-11-22T14:16:40Z</time>
      </trkpt>
      <trkpt lat="47.15058" lon="5.48974">
        <ele>252.483398</ele>
        <time>2012-11-22T14:16:59Z</time>
      </trkpt>
      <trkpt lat="47.15083" lon="5.48949">
        <ele>251.522095</ele>
        <time>2012-11-22T14:17:21Z</time>
      </trkpt>
      <trkpt lat="47.15114" lon="5.48915">
        <ele>251.522095</ele>
        <time>2012-11-22T14:17:50Z</time>
      </trkpt>
      <trkpt lat="47.15148" lon="5.48875">
        <ele>251.041382</ele>
        <time>2012-11-22T14:18:23Z</time>
      </trkpt>
      <trkpt lat="47.15167" lon="5.48849">
        <ele>251.041382</ele>
        <time>2012-11-22T14:18:42Z</time>
      </trkpt>
      <trkpt lat="47.15187" lon="5.48819">
        <ele>250.0802</ele>
        <time>2012-11-22T14:19:02Z</time>
      </trkpt>
      <trkpt lat="47.15214" lon="5.48786">
        <ele>249.118774</ele>
        <time>2012-11-22T14:19:28Z</time>
      </trkpt>
      <trkpt lat="47.15239" lon="5.48758">
        <ele>248.157593</ele>
        <time>2012-11-22T14:19:52Z</time>
      </trkpt>
      <trkpt lat="47.15241" lon="5.48757">
        <ele>248.157593</ele>
        <time>2012-11-22T14:19:53Z</time>
      </trkpt>
      <trkpt lat="47.15245" lon="5.48751">
        <ele>248.157593</ele>
        <time>2012-11-22T14:19:57Z</time>
      </trkpt>
      <trkpt lat="47.15271" lon="5.4873">
        <ele>247.196045</ele>
        <time>2012-11-22T14:20:20Z</time>
      </trkpt>
      <trkpt lat="47.153" lon="5.4871">
        <ele>246.715454</ele>
        <time>2012-11-22T14:20:43Z</time>
      </trkpt>
      <trkpt lat="47.15312" lon="5.48693">
        <ele>246.715454</ele>
        <time>2012-11-22T14:20:56Z</time>
      </trkpt>
      <trkpt lat="47.15318" lon="5.48645">
        <ele>243.831543</ele>
        <time>2012-11-22T14:21:22Z</time>
      </trkpt>
      <trkpt lat="47.15323" lon="5.48611">
        <ele>240.947632</ele>
        <time>2012-11-22T14:21:40Z</time>
      </trkpt>
      <trkpt lat="47.15337" lon="5.48573">
        <ele>238.063599</ele>
        <time>2012-11-22T14:22:04Z</time>
      </trkpt>
      <trkpt lat="47.15353" lon="5.48556">
        <ele>236.140991</ele>
        <time>2012-11-22T14:22:20Z</time>
      </trkpt>
      <trkpt lat="47.15367" lon="5.48536">
        <ele>234.699097</ele>
        <time>2012-11-22T14:22:35Z</time>
      </trkpt>
      <trkpt lat="47.15369" lon="5.48532">
        <ele>234.699097</ele>
        <time>2012-11-22T14:22:38Z</time>
      </trkpt>
      <trkpt lat="47.15374" lon="5.48522">
        <ele>234.699097</ele>
        <time>2012-11-22T14:22:45Z</time>
      </trkpt>
      <trkpt lat="47.15379" lon="5.48516">
        <ele>234.218384</ele>
        <time>2012-11-22T14:22:49Z</time>
      </trkpt>
      <trkpt lat="47.15382" lon="5.48512">
        <ele>234.218384</ele>
        <time>2012-11-22T14:22:52Z</time>
      </trkpt>
      <trkpt lat="47.15388" lon="5.48499">
        <ele>234.218384</ele>
        <time>2012-11-22T14:23:00Z</time>
      </trkpt>
      <trkpt lat="47.15402" lon="5.48485">
        <ele>234.218384</ele>
        <time>2012-11-22T14:23:12Z</time>
      </trkpt>
      <trkpt lat="47.15415" lon="5.48442">
        <ele>235.179688</ele>
        <time>2012-11-22T14:23:36Z</time>
      </trkpt>
      <trkpt lat="47.15427" lon="5.48403">
        <ele>236.621704</ele>
        <time>2012-11-22T14:23:59Z</time>
      </trkpt>
      <trkpt lat="47.15432" lon="5.48384">
        <ele>237.582886</ele>
        <time>2012-11-22T14:24:15Z</time>
      </trkpt>
      <trkpt lat="47.15434" lon="5.48381">
        <ele>237.582886</ele>
        <time>2012-11-22T14:24:17Z</time>
      </trkpt>
      <trkpt lat="47.15447" lon="5.48356">
        <ele>238.063599</ele>
        <time>2012-11-22T14:24:33Z</time>
      </trkpt>
      <trkpt lat="47.15448" lon="5.48355">
        <ele>238.063599</ele>
        <time>2012-11-22T14:24:34Z</time>
      </trkpt>
      <trkpt lat="47.15461" lon="5.48354">
        <ele>238.544312</ele>
        <time>2012-11-22T14:24:46Z</time>
      </trkpt>
      <trkpt lat="47.15474" lon="5.48364">
        <ele>239.024902</ele>
        <time>2012-11-22T14:24:55Z</time>
      </trkpt>
      <trkpt lat="47.15477" lon="5.48369">
        <ele>238.544312</ele>
        <time>2012-11-22T14:24:59Z</time>
      </trkpt>
      <trkpt lat="47.15484" lon="5.48373">
        <ele>239.024902</ele>
        <time>2012-11-22T14:25:05Z</time>
      </trkpt>
      <trkpt lat="47.1549" lon="5.48377">
        <ele>239.505493</ele>
        <time>2012-11-22T14:25:10Z</time>
      </trkpt>
      <trkpt lat="47.15507" lon="5.48383">
        <ele>239.986206</ele>
        <time>2012-11-22T14:25:23Z</time>
      </trkpt>
      <trkpt lat="47.1552" lon="5.48399">
        <ele>240.467041</ele>
        <time>2012-11-22T14:25:36Z</time>
      </trkpt>
      <trkpt lat="47.15526" lon="5.48406">
        <ele>241.428223</ele>
        <time>2012-11-22T14:25:42Z</time>
      </trkpt>
      <trkpt lat="47.15535" lon="5.48414">
        <ele>241.908936</ele>
        <time>2012-11-22T14:25:50Z</time>
      </trkpt>
      <trkpt lat="47.15542" lon="5.48415">
        <ele>242.389648</ele>
        <time>2012-11-22T14:25:56Z</time>
      </trkpt>
      <trkpt lat="47.15562" lon="5.48422">
        <ele>243.35083</ele>
        <time>2012-11-22T14:26:11Z</time>
      </trkpt>
      <trkpt lat="47.15569" lon="5.48418">
        <ele>244.312256</ele>
        <time>2012-11-22T14:26:16Z</time>
      </trkpt>
      <trkpt lat="47.15573" lon="5.48411">
        <ele>244.312256</ele>
        <time>2012-11-22T14:26:21Z</time>
      </trkpt>
      <trkpt lat="47.15578" lon="5.48402">
        <ele>244.792847</ele>
        <time>2012-11-22T14:26:27Z</time>
      </trkpt>
      <trkpt lat="47.15581" lon="5.48396">
        <ele>244.792847</ele>
        <time>2012-11-22T14:26:31Z</time>
      </trkpt>
      <trkpt lat="47.15586" lon="5.48384">
        <ele>245.273438</ele>
        <time>2012-11-22T14:26:38Z</time>
      </trkpt>
      <trkpt lat="47.15597" lon="5.48373">
        <ele>246.234863</ele>
        <time>2012-11-22T14:26:49Z</time>
      </trkpt>
      <trkpt lat="47.15613" lon="5.48383">
        <ele>247.196045</ele>
        <time>2012-11-22T14:27:04Z</time>
      </trkpt>
      <trkpt lat="47.15619" lon="5.48389">
        <ele>247.676758</ele>
        <time>2012-11-22T14:27:07Z</time>
      </trkpt>
      <trkpt lat="47.1563" lon="5.48397">
        <ele>248.157593</ele>
        <time>2012-11-22T14:27:19Z</time>
      </trkpt>
      <trkpt lat="47.15632" lon="5.48397">
        <ele>248.638184</ele>
        <time>2012-11-22T14:27:21Z</time>
      </trkpt>
      <trkpt lat="47.15655" lon="5.48404">
        <ele>250.0802</ele>
        <time>2012-11-22T14:27:40Z</time>
      </trkpt>
      <trkpt lat="47.15661" lon="5.48407">
        <ele>250.560791</ele>
        <time>2012-11-22T14:27:44Z</time>
      </trkpt>
      <trkpt lat="47.15671" lon="5.48413">
        <ele>251.041382</ele>
        <time>2012-11-22T14:27:52Z</time>
      </trkpt>
      <trkpt lat="47.15676" lon="5.48416">
        <ele>251.522095</ele>
        <time>2012-11-22T14:27:55Z</time>
      </trkpt>
      <trkpt lat="47.15677" lon="5.4843">
        <ele>252.002808</ele>
        <time>2012-11-22T14:28:02Z</time>
      </trkpt>
      <trkpt lat="47.15679" lon="5.48436">
        <ele>252.483398</ele>
        <time>2012-11-22T14:28:07Z</time>
      </trkpt>
      <trkpt lat="47.15689" lon="5.48467">
        <ele>254.406006</ele>
        <time>2012-11-22T14:28:26Z</time>
      </trkpt>
      <trkpt lat="47.15706" lon="5.48498">
        <ele>256.328735</ele>
        <time>2012-11-22T14:28:48Z</time>
      </trkpt>
      <trkpt lat="47.15722" lon="5.48522">
        <ele>257.770752</ele>
        <time>2012-11-22T14:29:06Z</time>
      </trkpt>
      <trkpt lat="47.15745" lon="5.48544">
        <ele>258.731934</ele>
        <time>2012-11-22T14:29:29Z</time>
      </trkpt>
      <trkpt lat="47.15766" lon="5.48572">
        <ele>260.17395</ele>
        <time>2012-11-22T14:29:53Z</time>
      </trkpt>
      <trkpt lat="47.15787" lon="5.48601">
        <ele>261.135254</ele>
        <time>2012-11-22T14:30:14Z</time>
      </trkpt>
      <trkpt lat="47.15813" lon="5.48633">
        <ele>261.615967</ele>
        <time>2012-11-22T14:30:41Z</time>
      </trkpt>
      <trkpt lat="47.15837" lon="5.48658">
        <ele>262.096558</ele>
        <time>2012-11-22T14:31:04Z</time>
      </trkpt>
      <trkpt lat="47.15857" lon="5.48672">
        <ele>262.577148</ele>
        <time>2012-11-22T14:31:21Z</time>
      </trkpt>
      <trkpt lat="47.15888" lon="5.48703">
        <ele>264.019287</ele>
        <time>2012-11-22T14:31:51Z</time>
      </trkpt>
      <trkpt lat="47.15911" lon="5.48728">
        <ele>264.980591</ele>
        <time>2012-11-22T14:32:13Z</time>
      </trkpt>
      <trkpt lat="47.15919" lon="5.48747">
        <ele>264.499878</ele>
        <time>2012-11-22T14:32:30Z</time>
      </trkpt>
      <trkpt lat="47.15921" lon="5.48749">
        <ele>264.499878</ele>
        <time>2012-11-22T14:34:21Z</time>
      </trkpt>
      <trkpt lat="47.15923" lon="5.48755">
        <ele>264.499878</ele>
        <time>2012-11-22T14:34:26Z</time>
      </trkpt>
      <trkpt lat="47.15945" lon="5.48777">
        <ele>264.499878</ele>
        <time>2012-11-22T14:34:49Z</time>
      </trkpt>
      <trkpt lat="47.15965" lon="5.48789">
        <ele>264.980591</ele>
        <time>2012-11-22T14:35:05Z</time>
      </trkpt>
      <trkpt lat="47.16002" lon="5.488">
        <ele>265.461304</ele>
        <time>2012-11-22T14:35:33Z</time>
      </trkpt>
      <trkpt lat="47.16031" lon="5.48811">
        <ele>266.903198</ele>
        <time>2012-11-22T14:35:57Z</time>
      </trkpt>
      <trkpt lat="47.16061" lon="5.48822">
        <ele>267.864502</ele>
        <time>2012-11-22T14:36:18Z</time>
      </trkpt>
      <trkpt lat="47.16082" lon="5.48828">
        <ele>267.383911</ele>
        <time>2012-11-22T14:36:33Z</time>
      </trkpt>
      <trkpt lat="47.16111" lon="5.48834">
        <ele>267.383911</ele>
        <time>2012-11-22T14:36:53Z</time>
      </trkpt>
      <trkpt lat="47.16137" lon="5.48833">
        <ele>266.903198</ele>
        <time>2012-11-22T14:37:11Z</time>
      </trkpt>
      <trkpt lat="47.16157" lon="5.48814">
        <ele>265.941895</ele>
        <time>2012-11-22T14:37:30Z</time>
      </trkpt>
      <trkpt lat="47.16163" lon="5.48807">
        <ele>264.499878</ele>
        <time>2012-11-22T14:37:37Z</time>
      </trkpt>
      <trkpt lat="47.16173" lon="5.4879">
        <ele>261.615967</ele>
        <time>2012-11-22T14:37:52Z</time>
      </trkpt>
      <trkpt lat="47.16188" lon="5.48776">
        <ele>258.251343</ele>
        <time>2012-11-22T14:38:08Z</time>
      </trkpt>
      <trkpt lat="47.16208" lon="5.48768">
        <ele>255.36731</ele>
        <time>2012-11-22T14:38:26Z</time>
      </trkpt>
      <trkpt lat="47.16228" lon="5.4876">
        <ele>252.483398</ele>
        <time>2012-11-22T14:38:43Z</time>
      </trkpt>
      <trkpt lat="47.16257" lon="5.48753">
        <ele>250.0802</ele>
        <time>2012-11-22T14:39:04Z</time>
      </trkpt>
      <trkpt lat="47.16285" lon="5.48736">
        <ele>248.638184</ele>
        <time>2012-11-22T14:39:27Z</time>
      </trkpt>
      <trkpt lat="47.16314" lon="5.48711">
        <ele>247.196045</ele>
        <time>2012-11-22T14:39:52Z</time>
      </trkpt>
      <trkpt lat="47.16324" lon="5.48702">
        <ele>246.715454</ele>
        <time>2012-11-22T14:40:01Z</time>
      </trkpt>
      <trkpt lat="47.16349" lon="5.48682">
        <ele>246.234863</ele>
        <time>2012-11-22T14:40:24Z</time>
      </trkpt>
      <trkpt lat="47.16374" lon="5.4866">
        <ele>245.75415</ele>
        <time>2012-11-22T14:40:48Z</time>
      </trkpt>
      <trkpt lat="47.16398" lon="5.48644">
        <ele>244.792847</ele>
        <time>2012-11-22T14:41:09Z</time>
      </trkpt>
      <trkpt lat="47.16414" lon="5.48637">
        <ele>244.312256</ele>
        <time>2012-11-22T14:41:22Z</time>
      </trkpt>
      <trkpt lat="47.16423" lon="5.48635">
        <ele>244.312256</ele>
        <time>2012-11-22T14:41:36Z</time>
      </trkpt>
      <trkpt lat="47.16431" lon="5.48626">
        <ele>244.312256</ele>
        <time>2012-11-22T14:41:52Z</time>
      </trkpt>
      <trkpt lat="47.16441" lon="5.48604">
        <ele>243.35083</ele>
        <time>2012-11-22T14:42:16Z</time>
      </trkpt>
      <trkpt lat="47.16462" lon="5.48587">
        <ele>241.908936</ele>
        <time>2012-11-22T14:42:39Z</time>
      </trkpt>
      <trkpt lat="47.16477" lon="5.4857">
        <ele>241.428223</ele>
        <time>2012-11-22T14:43:00Z</time>
      </trkpt>
      <trkpt lat="47.16497" lon="5.48556">
        <ele>240.467041</ele>
        <time>2012-11-22T14:43:21Z</time>
      </trkpt>
      <trkpt lat="47.16513" lon="5.48533">
        <ele>239.505493</ele>
        <time>2012-11-22T14:43:41Z</time>
      </trkpt>
      <trkpt lat="47.16524" lon="5.4851">
        <ele>239.024902</ele>
        <time>2012-11-22T14:43:58Z</time>
      </trkpt>
      <trkpt lat="47.16534" lon="5.48494">
        <ele>239.024902</ele>
        <time>2012-11-22T14:44:12Z</time>
      </trkpt>
      <trkpt lat="47.16547" lon="5.48468">
        <ele>240.467041</ele>
        <time>2012-11-22T14:44:29Z</time>
      </trkpt>
      <trkpt lat="47.16558" lon="5.48452">
        <ele>241.428223</ele>
        <time>2012-11-22T14:44:42Z</time>
      </trkpt>
      <trkpt lat="47.16571" lon="5.48434">
        <ele>240.947632</ele>
        <time>2012-11-22T14:44:57Z</time>
      </trkpt>
      <trkpt lat="47.16585" lon="5.4842">
        <ele>241.428223</ele>
        <time>2012-11-22T14:45:10Z</time>
      </trkpt>
      <trkpt lat="47.16599" lon="5.48409">
        <ele>241.428223</ele>
        <time>2012-11-22T14:45:24Z</time>
      </trkpt>
      <trkpt lat="47.16621" lon="5.48393">
        <ele>240.467041</ele>
        <time>2012-11-22T14:45:45Z</time>
      </trkpt>
      <trkpt lat="47.16639" lon="5.48381">
        <ele>239.505493</ele>
        <time>2012-11-22T14:46:05Z</time>
      </trkpt>
      <trkpt lat="47.16659" lon="5.48366">
        <ele>239.024902</ele>
        <time>2012-11-22T14:46:26Z</time>
      </trkpt>
      <trkpt lat="47.16684" lon="5.48343">
        <ele>238.544312</ele>
        <time>2012-11-22T14:46:48Z</time>
      </trkpt>
      <trkpt lat="47.16703" lon="5.48328">
        <ele>237.582886</ele>
        <time>2012-11-22T14:47:03Z</time>
      </trkpt>
      <trkpt lat="47.16721" lon="5.48304">
        <ele>235.660278</ele>
        <time>2012-11-22T14:47:22Z</time>
      </trkpt>
      <trkpt lat="47.1673" lon="5.48295">
        <ele>234.699097</ele>
        <time>2012-11-22T14:47:29Z</time>
      </trkpt>
      <trkpt lat="47.16743" lon="5.48278">
        <ele>233.737671</ele>
        <time>2012-11-22T14:47:43Z</time>
      </trkpt>
      <trkpt lat="47.16744" lon="5.48278">
        <ele>233.737671</ele>
        <time>2012-11-22T14:47:44Z</time>
      </trkpt>
      <trkpt lat="47.16748" lon="5.48271">
        <ele>233.25708</ele>
        <time>2012-11-22T14:47:48Z</time>
      </trkpt>
      <trkpt lat="47.16755" lon="5.4826">
        <ele>232.295776</ele>
        <time>2012-11-22T14:47:56Z</time>
      </trkpt>
      <trkpt lat="47.1676" lon="5.48253">
        <ele>231.814941</ele>
        <time>2012-11-22T14:48:01Z</time>
      </trkpt>
      <trkpt lat="47.16762" lon="5.48252">
        <ele>231.814941</ele>
        <time>2012-11-22T14:48:03Z</time>
      </trkpt>
      <trkpt lat="47.16764" lon="5.4825">
        <ele>231.334351</ele>
        <time>2012-11-22T14:48:05Z</time>
      </trkpt>
      <trkpt lat="47.16772" lon="5.48241">
        <ele>231.334351</ele>
        <time>2012-11-22T14:48:13Z</time>
      </trkpt>
      <trkpt lat="47.16785" lon="5.48219">
        <ele>229.892334</ele>
        <time>2012-11-22T14:48:28Z</time>
      </trkpt>
      <trkpt lat="47.16787" lon="5.48214">
        <ele>229.411743</ele>
        <time>2012-11-22T14:48:32Z</time>
      </trkpt>
      <trkpt lat="47.16807" lon="5.48189">
        <ele>227.489136</ele>
        <time>2012-11-22T14:48:54Z</time>
      </trkpt>
      <trkpt lat="47.16829" lon="5.48156">
        <ele>225.085938</ele>
        <time>2012-11-22T14:49:19Z</time>
      </trkpt>
      <trkpt lat="47.16857" lon="5.48122">
        <ele>222.682495</ele>
        <time>2012-11-22T14:49:46Z</time>
      </trkpt>
      <trkpt lat="47.1689" lon="5.48106">
        <ele>220.279175</ele>
        <time>2012-11-22T14:50:14Z</time>
      </trkpt>
      <trkpt lat="47.16917" lon="5.48097">
        <ele>218.356567</ele>
        <time>2012-11-22T14:50:36Z</time>
      </trkpt>
      <trkpt lat="47.16941" lon="5.48088">
        <ele>215.953247</ele>
        <time>2012-11-22T14:50:56Z</time>
      </trkpt>
      <trkpt lat="47.1697" lon="5.48066">
        <ele>214.03064</ele>
        <time>2012-11-22T14:51:22Z</time>
      </trkpt>
      <trkpt lat="47.16998" lon="5.48055">
        <ele>212.108032</ele>
        <time>2012-11-22T14:51:46Z</time>
      </trkpt>
      <trkpt lat="47.17043" lon="5.4804">
        <ele>210.185425</ele>
        <time>2012-11-22T14:52:21Z</time>
      </trkpt>
      <trkpt lat="47.17072" lon="5.48024">
        <ele>208.743408</ele>
        <time>2012-11-22T14:52:45Z</time>
      </trkpt>
      <trkpt lat="47.17106" lon="5.47995">
        <ele>208.262817</ele>
        <time>2012-11-22T14:53:14Z</time>
      </trkpt>
      <trkpt lat="47.1713" lon="5.47973">
        <ele>207.782104</ele>
        <time>2012-11-22T14:53:36Z</time>
      </trkpt>
      <trkpt lat="47.17163" lon="5.47959">
        <ele>207.782104</ele>
        <time>2012-11-22T14:54:02Z</time>
      </trkpt>
      <trkpt lat="47.17201" lon="5.47947">
        <ele>209.704834</ele>
        <time>2012-11-22T14:54:32Z</time>
      </trkpt>
      <trkpt lat="47.17224" lon="5.47932">
        <ele>209.224121</ele>
        <time>2012-11-22T14:54:51Z</time>
      </trkpt>
      <trkpt lat="47.17245" lon="5.47918">
        <ele>209.224121</ele>
        <time>2012-11-22T14:55:11Z</time>
      </trkpt>
      <trkpt lat="47.17265" lon="5.47918">
        <ele>207.782104</ele>
        <time>2012-11-22T14:55:30Z</time>
      </trkpt>
      <trkpt lat="47.173" lon="5.47915">
        <ele>206.340088</ele>
        <time>2012-11-22T14:55:59Z</time>
      </trkpt>
      <trkpt lat="47.17334" lon="5.47906">
        <ele>205.859497</ele>
        <time>2012-11-22T14:56:26Z</time>
      </trkpt>
      <trkpt lat="47.17359" lon="5.47888">
        <ele>205.378784</ele>
        <time>2012-11-22T14:56:49Z</time>
      </trkpt>
      <trkpt lat="47.17381" lon="5.47865">
        <ele>204.898071</ele>
        <time>2012-11-22T14:57:13Z</time>
      </trkpt>
      <trkpt lat="47.17396" lon="5.47846">
        <ele>205.378784</ele>
        <time>2012-11-22T14:57:32Z</time>
      </trkpt>
      <trkpt lat="47.17413" lon="5.47827">
        <ele>205.859497</ele>
        <time>2012-11-22T14:57:49Z</time>
      </trkpt>
      <trkpt lat="47.17433" lon="5.47806">
        <ele>206.340088</ele>
        <time>2012-11-22T14:58:09Z</time>
      </trkpt>
      <trkpt lat="47.17448" lon="5.47789">
        <ele>207.301392</ele>
        <time>2012-11-22T14:58:25Z</time>
      </trkpt>
      <trkpt lat="47.17451" lon="5.47784">
        <ele>207.782104</ele>
        <time>2012-11-22T14:58:29Z</time>
      </trkpt>
      <trkpt lat="47.17461" lon="5.4777">
        <ele>208.262817</ele>
        <time>2012-11-22T14:58:44Z</time>
      </trkpt>
      <trkpt lat="47.17477" lon="5.47753">
        <ele>207.782104</ele>
        <time>2012-11-22T14:59:04Z</time>
      </trkpt>
      <trkpt lat="47.17489" lon="5.47732">
        <ele>205.859497</ele>
        <time>2012-11-22T14:59:21Z</time>
      </trkpt>
      <trkpt lat="47.17494" lon="5.47701">
        <ele>205.859497</ele>
        <time>2012-11-22T14:59:39Z</time>
      </trkpt>
      <trkpt lat="47.175" lon="5.47655">
        <ele>204.41748</ele>
        <time>2012-11-22T15:00:00Z</time>
      </trkpt>
      <trkpt lat="47.17514" lon="5.47622">
        <ele>202.975464</ele>
        <time>2012-11-22T15:00:20Z</time>
      </trkpt>
      <trkpt lat="47.1753" lon="5.47579">
        <ele>202.014282</ele>
        <time>2012-11-22T15:00:45Z</time>
      </trkpt>
      <trkpt lat="47.17539" lon="5.47557">
        <ele>202.975464</ele>
        <time>2012-11-22T15:01:00Z</time>
      </trkpt>
      <trkpt lat="47.17546" lon="5.47552">
        <ele>202.494873</ele>
        <time>2012-11-22T15:01:10Z</time>
      </trkpt>
      <trkpt lat="47.17565" lon="5.47569">
        <ele>202.014282</ele>
        <time>2012-11-22T15:01:20Z</time>
      </trkpt>
      <trkpt lat="47.17586" lon="5.47588">
        <ele>200.091675</ele>
        <time>2012-11-22T15:01:41Z</time>
      </trkpt>
      <trkpt lat="47.17592" lon="5.47601">
        <ele>198.649536</ele>
        <time>2012-11-22T15:01:52Z</time>
      </trkpt>
      <trkpt lat="47.17596" lon="5.47612">
        <ele>197.688232</ele>
        <time>2012-11-22T15:01:59Z</time>
      </trkpt>
      <trkpt lat="47.17596" lon="5.47644">
        <ele>195.284912</ele>
        <time>2012-11-22T15:02:16Z</time>
      </trkpt>
      <trkpt lat="47.17595" lon="5.47666">
        <ele>192.881714</ele>
        <time>2012-11-22T15:02:32Z</time>
      </trkpt>
      <trkpt lat="47.17585" lon="5.47695">
        <ele>191.920288</ele>
        <time>2012-11-22T15:02:50Z</time>
      </trkpt>
      <trkpt lat="47.17576" lon="5.47711">
        <ele>192.881714</ele>
        <time>2012-11-22T15:03:03Z</time>
      </trkpt>
      <trkpt lat="47.17574" lon="5.47715">
        <ele>192.881714</ele>
        <time>2012-11-22T15:03:07Z</time>
      </trkpt>
      <trkpt lat="47.1756" lon="5.47728">
        <ele>193.843018</ele>
        <time>2012-11-22T15:03:22Z</time>
      </trkpt>
      <trkpt lat="47.17556" lon="5.47732">
        <ele>194.32373</ele>
        <time>2012-11-22T15:03:26Z</time>
      </trkpt>
      <trkpt lat="47.17545" lon="5.47741">
        <ele>194.804321</ele>
        <time>2012-11-22T15:03:37Z</time>
      </trkpt>
      <trkpt lat="47.17535" lon="5.47759">
        <ele>194.804321</ele>
        <time>2012-11-22T15:03:51Z</time>
      </trkpt>
      <trkpt lat="47.17527" lon="5.47781">
        <ele>194.804321</ele>
        <time>2012-11-22T15:04:03Z</time>
      </trkpt>
      <trkpt lat="47.17524" lon="5.47792">
        <ele>194.804321</ele>
        <time>2012-11-22T15:04:10Z</time>
      </trkpt>
      <trkpt lat="47.17514" lon="5.47813">
        <ele>195.284912</ele>
        <time>2012-11-22T15:04:26Z</time>
      </trkpt>
      <trkpt lat="47.17501" lon="5.47829">
        <ele>196.246338</ele>
        <time>2012-11-22T15:04:40Z</time>
      </trkpt>
      <trkpt lat="47.17492" lon="5.47841">
        <ele>198.168945</ele>
        <time>2012-11-22T15:04:53Z</time>
      </trkpt>
      <trkpt lat="47.17484" lon="5.47851">
        <ele>199.130127</ele>
        <time>2012-11-22T15:05:09Z</time>
      </trkpt>
      <trkpt lat="47.17478" lon="5.47856">
        <ele>199.61084</ele>
        <time>2012-11-22T15:05:35Z</time>
      </trkpt>
      <trkpt lat="47.17477" lon="5.47854">
        <ele>199.61084</ele>
        <time>2012-11-22T15:06:25Z</time>
      </trkpt>
      <trkpt lat="47.17477" lon="5.47854">
        <ele>202.975464</ele>
        <time>2012-11-22T15:11:03Z</time>
      </trkpt>
      <trkpt lat="47.17477" lon="5.47854">
        <ele>201.052856</ele>
        <time>2012-11-22T15:11:04Z</time>
      </trkpt>
      <trkpt lat="47.17473" lon="5.47868">
        <ele>201.052856</ele>
        <time>2012-11-22T15:13:06Z</time>
      </trkpt>
      <trkpt lat="47.17456" lon="5.47901">
        <ele>199.61084</ele>
        <time>2012-11-22T15:13:27Z</time>
      </trkpt>
      <trkpt lat="47.17437" lon="5.47933">
        <ele>198.649536</ele>
        <time>2012-11-22T15:13:50Z</time>
      </trkpt>
      <trkpt lat="47.17416" lon="5.47983">
        <ele>198.649536</ele>
        <time>2012-11-22T15:14:21Z</time>
      </trkpt>
      <trkpt lat="47.17403" lon="5.48024">
        <ele>198.649536</ele>
        <time>2012-11-22T15:14:45Z</time>
      </trkpt>
      <trkpt lat="47.17398" lon="5.48072">
        <ele>199.61084</ele>
        <time>2012-11-22T15:15:10Z</time>
      </trkpt>
      <trkpt lat="47.17393" lon="5.481">
        <ele>201.052856</ele>
        <time>2012-11-22T15:15:25Z</time>
      </trkpt>
      <trkpt lat="47.17392" lon="5.48104">
        <ele>201.533569</ele>
        <time>2012-11-22T15:15:27Z</time>
      </trkpt>
      <trkpt lat="47.17385" lon="5.48126">
        <ele>203.93689</ele>
        <time>2012-11-22T15:15:44Z</time>
      </trkpt>
      <trkpt lat="47.17378" lon="5.48142">
        <ele>205.378784</ele>
        <time>2012-11-22T15:15:55Z</time>
      </trkpt>
      <trkpt lat="47.17376" lon="5.48148">
        <ele>206.340088</ele>
        <time>2012-11-22T15:15:59Z</time>
      </trkpt>
      <trkpt lat="47.1736" lon="5.4818">
        <ele>209.224121</ele>
        <time>2012-11-22T15:16:22Z</time>
      </trkpt>
      <trkpt lat="47.17346" lon="5.4822">
        <ele>211.627441</ele>
        <time>2012-11-22T15:16:44Z</time>
      </trkpt>
      <trkpt lat="47.17326" lon="5.48257">
        <ele>214.03064</ele>
        <time>2012-11-22T15:17:10Z</time>
      </trkpt>
      <trkpt lat="47.17312" lon="5.4829">
        <ele>215.472656</ele>
        <time>2012-11-22T15:17:30Z</time>
      </trkpt>
      <trkpt lat="47.17304" lon="5.48318">
        <ele>216.914673</ele>
        <time>2012-11-22T15:17:46Z</time>
      </trkpt>
      <trkpt lat="47.17298" lon="5.48353">
        <ele>218.83728</ele>
        <time>2012-11-22T15:18:05Z</time>
      </trkpt>
      <trkpt lat="47.17295" lon="5.48373">
        <ele>219.317993</ele>
        <time>2012-11-22T15:18:19Z</time>
      </trkpt>
      <trkpt lat="47.17291" lon="5.48402">
        <ele>219.798584</ele>
        <time>2012-11-22T15:18:35Z</time>
      </trkpt>
      <trkpt lat="47.17286" lon="5.48443">
        <ele>220.759888</ele>
        <time>2012-11-22T15:18:56Z</time>
      </trkpt>
      <trkpt lat="47.173" lon="5.48476">
        <ele>222.201782</ele>
        <time>2012-11-22T15:19:18Z</time>
      </trkpt>
      <trkpt lat="47.17306" lon="5.48486">
        <ele>222.682495</ele>
        <time>2012-11-22T15:19:25Z</time>
      </trkpt>
      <trkpt lat="47.17315" lon="5.4851">
        <ele>223.643799</ele>
        <time>2012-11-22T15:19:40Z</time>
      </trkpt>
      <trkpt lat="47.17322" lon="5.48545">
        <ele>225.566528</ele>
        <time>2012-11-22T15:20:00Z</time>
      </trkpt>
      <trkpt lat="47.17319" lon="5.48578">
        <ele>227.489136</ele>
        <time>2012-11-22T15:20:18Z</time>
      </trkpt>
      <trkpt lat="47.17315" lon="5.48602">
        <ele>228.931152</ele>
        <time>2012-11-22T15:20:33Z</time>
      </trkpt>
      <trkpt lat="47.1731" lon="5.48635">
        <ele>230.373047</ele>
        <time>2012-11-22T15:20:51Z</time>
      </trkpt>
      <trkpt lat="47.17302" lon="5.48679">
        <ele>232.295776</ele>
        <time>2012-11-22T15:21:15Z</time>
      </trkpt>
      <trkpt lat="47.17298" lon="5.48705">
        <ele>233.737671</ele>
        <time>2012-11-22T15:21:30Z</time>
      </trkpt>
      <trkpt lat="47.17296" lon="5.48751">
        <ele>236.621704</ele>
        <time>2012-11-22T15:21:55Z</time>
      </trkpt>
      <trkpt lat="47.17294" lon="5.48781">
        <ele>238.544312</ele>
        <time>2012-11-22T15:22:13Z</time>
      </trkpt>
      <trkpt lat="47.17287" lon="5.48818">
        <ele>240.947632</ele>
        <time>2012-11-22T15:22:34Z</time>
      </trkpt>
      <trkpt lat="47.17276" lon="5.48867">
        <ele>242.870239</ele>
        <time>2012-11-22T15:23:01Z</time>
      </trkpt>
      <trkpt lat="47.17265" lon="5.48915">
        <ele>245.273438</ele>
        <time>2012-11-22T15:23:29Z</time>
      </trkpt>
      <trkpt lat="47.17262" lon="5.48958">
        <ele>247.676758</ele>
        <time>2012-11-22T15:23:54Z</time>
      </trkpt>
      <trkpt lat="47.17263" lon="5.48987">
        <ele>249.599487</ele>
        <time>2012-11-22T15:24:13Z</time>
      </trkpt>
      <trkpt lat="47.17256" lon="5.49009">
        <ele>250.560791</ele>
        <time>2012-11-22T15:24:26Z</time>
      </trkpt>
      <trkpt lat="47.1724" lon="5.4902">
        <ele>251.522095</ele>
        <time>2012-11-22T15:24:40Z</time>
      </trkpt>
      <trkpt lat="47.17227" lon="5.49039">
        <ele>252.002808</ele>
        <time>2012-11-22T15:24:55Z</time>
      </trkpt>
      <trkpt lat="47.17226" lon="5.49042">
        <ele>252.002808</ele>
        <time>2012-11-22T15:24:56Z</time>
      </trkpt>
      <trkpt lat="47.17224" lon="5.49044">
        <ele>252.002808</ele>
        <time>2012-11-22T15:24:58Z</time>
      </trkpt>
      <trkpt lat="47.17219" lon="5.49045">
        <ele>252.002808</ele>
        <time>2012-11-22T15:25:03Z</time>
      </trkpt>
      <trkpt lat="47.17204" lon="5.49053">
        <ele>252.002808</ele>
        <time>2012-11-22T15:25:17Z</time>
      </trkpt>
      <trkpt lat="47.17183" lon="5.4906">
        <ele>252.483398</ele>
        <time>2012-11-22T15:25:37Z</time>
      </trkpt>
      <trkpt lat="47.17151" lon="5.49069">
        <ele>251.041382</ele>
        <time>2012-11-22T15:26:05Z</time>
      </trkpt>
      <trkpt lat="47.17128" lon="5.49075">
        <ele>249.599487</ele>
        <time>2012-11-22T15:26:27Z</time>
      </trkpt>
      <trkpt lat="47.17111" lon="5.49075">
        <ele>248.157593</ele>
        <time>2012-11-22T15:26:46Z</time>
      </trkpt>
      <trkpt lat="47.17083" lon="5.49081">
        <ele>245.75415</ele>
        <time>2012-11-22T15:27:11Z</time>
      </trkpt>
      <trkpt lat="47.17064" lon="5.49089">
        <ele>243.831543</ele>
        <time>2012-11-22T15:27:28Z</time>
      </trkpt>
      <trkpt lat="47.17033" lon="5.491">
        <ele>240.467041</ele>
        <time>2012-11-22T15:27:56Z</time>
      </trkpt>
      <trkpt lat="47.17016" lon="5.4911">
        <ele>238.544312</ele>
        <time>2012-11-22T15:28:14Z</time>
      </trkpt>
      <trkpt lat="47.17013" lon="5.49112">
        <ele>238.063599</ele>
        <time>2012-11-22T15:28:17Z</time>
      </trkpt>
      <trkpt lat="47.17009" lon="5.49115">
        <ele>238.063599</ele>
        <time>2012-11-22T15:28:21Z</time>
      </trkpt>
      <trkpt lat="47.16991" lon="5.49133">
        <ele>235.660278</ele>
        <time>2012-11-22T15:28:41Z</time>
      </trkpt>
      <trkpt lat="47.16983" lon="5.49148">
        <ele>233.737671</ele>
        <time>2012-11-22T15:28:53Z</time>
      </trkpt>
      <trkpt lat="47.16973" lon="5.49168">
        <ele>233.25708</ele>
        <time>2012-11-22T15:29:07Z</time>
      </trkpt>
      <trkpt lat="47.16961" lon="5.49191">
        <ele>233.25708</ele>
        <time>2012-11-22T15:29:22Z</time>
      </trkpt>
      <trkpt lat="47.16942" lon="5.49214">
        <ele>232.776489</ele>
        <time>2012-11-22T15:29:37Z</time>
      </trkpt>
      <trkpt lat="47.16938" lon="5.49222">
        <ele>233.25708</ele>
        <time>2012-11-22T15:29:44Z</time>
      </trkpt>
      <trkpt lat="47.16936" lon="5.49226">
        <ele>233.25708</ele>
        <time>2012-11-22T15:29:47Z</time>
      </trkpt>
      <trkpt lat="47.16928" lon="5.49242">
        <ele>233.737671</ele>
        <time>2012-11-22T15:30:00Z</time>
      </trkpt>
      <trkpt lat="47.16915" lon="5.4927">
        <ele>234.699097</ele>
        <time>2012-11-22T15:30:16Z</time>
      </trkpt>
      <trkpt lat="47.16914" lon="5.49272">
        <ele>234.699097</ele>
        <time>2012-11-22T15:30:18Z</time>
      </trkpt>
      <trkpt lat="47.16898" lon="5.49296">
        <ele>235.179688</ele>
        <time>2012-11-22T15:30:36Z</time>
      </trkpt>
      <trkpt lat="47.16896" lon="5.49299">
        <ele>235.179688</ele>
        <time>2012-11-22T15:30:38Z</time>
      </trkpt>
      <trkpt lat="47.16884" lon="5.49315">
        <ele>234.218384</ele>
        <time>2012-11-22T15:30:52Z</time>
      </trkpt>
      <trkpt lat="47.16882" lon="5.49317">
        <ele>233.737671</ele>
        <time>2012-11-22T15:30:54Z</time>
      </trkpt>
      <trkpt lat="47.1686" lon="5.49336">
        <ele>231.334351</ele>
        <time>2012-11-22T15:31:16Z</time>
      </trkpt>
      <trkpt lat="47.16834" lon="5.49344">
        <ele>229.411743</ele>
        <time>2012-11-22T15:31:38Z</time>
      </trkpt>
      <trkpt lat="47.1681" lon="5.49359">
        <ele>226.527832</ele>
        <time>2012-11-22T15:32:01Z</time>
      </trkpt>
      <trkpt lat="47.16794" lon="5.49381">
        <ele>224.124512</ele>
        <time>2012-11-22T15:32:18Z</time>
      </trkpt>
      <trkpt lat="47.16773" lon="5.49406">
        <ele>222.201782</ele>
        <time>2012-11-22T15:32:41Z</time>
      </trkpt>
      <trkpt lat="47.16741" lon="5.49419">
        <ele>221.721191</ele>
        <time>2012-11-22T15:33:07Z</time>
      </trkpt>
      <trkpt lat="47.16731" lon="5.4942">
        <ele>221.721191</ele>
        <time>2012-11-22T15:33:16Z</time>
      </trkpt>
      <trkpt lat="47.16721" lon="5.49415">
        <ele>222.201782</ele>
        <time>2012-11-22T15:33:26Z</time>
      </trkpt>
      <trkpt lat="47.16718" lon="5.49415">
        <ele>222.201782</ele>
        <time>2012-11-22T15:33:28Z</time>
      </trkpt>
      <trkpt lat="47.16715" lon="5.49416">
        <ele>221.721191</ele>
        <time>2012-11-22T15:33:31Z</time>
      </trkpt>
      <trkpt lat="47.16712" lon="5.49417">
        <ele>221.721191</ele>
        <time>2012-11-22T15:33:34Z</time>
      </trkpt>
      <trkpt lat="47.16696" lon="5.49412">
        <ele>221.721191</ele>
        <time>2012-11-22T15:33:48Z</time>
      </trkpt>
      <trkpt lat="47.16666" lon="5.49418">
        <ele>221.721191</ele>
        <time>2012-11-22T15:34:08Z</time>
      </trkpt>
      <trkpt lat="47.16649" lon="5.49439">
        <ele>221.721191</ele>
        <time>2012-11-22T15:34:26Z</time>
      </trkpt>
      <trkpt lat="47.16642" lon="5.49452">
        <ele>222.682495</ele>
        <time>2012-11-22T15:34:36Z</time>
      </trkpt>
      <trkpt lat="47.1664" lon="5.49454">
        <ele>222.682495</ele>
        <time>2012-11-22T15:34:38Z</time>
      </trkpt>
      <trkpt lat="47.16631" lon="5.49471">
        <ele>224.124512</ele>
        <time>2012-11-22T15:34:52Z</time>
      </trkpt>
      <trkpt lat="47.16621" lon="5.49494">
        <ele>226.047119</ele>
        <time>2012-11-22T15:35:08Z</time>
      </trkpt>
      <trkpt lat="47.16618" lon="5.49503">
        <ele>226.527832</ele>
        <time>2012-11-22T15:35:14Z</time>
      </trkpt>
      <trkpt lat="47.16609" lon="5.49524">
        <ele>228.450439</ele>
        <time>2012-11-22T15:35:30Z</time>
      </trkpt>
      <trkpt lat="47.16598" lon="5.49547">
        <ele>229.892334</ele>
        <time>2012-11-22T15:35:46Z</time>
      </trkpt>
      <trkpt lat="47.16583" lon="5.49578">
        <ele>231.814941</ele>
        <time>2012-11-22T15:36:07Z</time>
      </trkpt>
      <trkpt lat="47.16569" lon="5.49602">
        <ele>233.25708</ele>
        <time>2012-11-22T15:36:25Z</time>
      </trkpt>
      <trkpt lat="47.16567" lon="5.49605">
        <ele>233.737671</ele>
        <time>2012-11-22T15:36:27Z</time>
      </trkpt>
      <trkpt lat="47.16557" lon="5.49627">
        <ele>235.179688</ele>
        <time>2012-11-22T15:36:43Z</time>
      </trkpt>
      <trkpt lat="47.16546" lon="5.49647">
        <ele>236.621704</ele>
        <time>2012-11-22T15:37:00Z</time>
      </trkpt>
      <trkpt lat="47.16544" lon="5.49657">
        <ele>237.102295</ele>
        <time>2012-11-22T15:37:17Z</time>
      </trkpt>
      <trkpt lat="47.16542" lon="5.4968">
        <ele>237.582886</ele>
        <time>2012-11-22T15:37:33Z</time>
      </trkpt>
      <trkpt lat="47.16542" lon="5.49702">
        <ele>239.024902</ele>
        <time>2012-11-22T15:37:47Z</time>
      </trkpt>
      <trkpt lat="47.16539" lon="5.4972">
        <ele>240.467041</ele>
        <time>2012-11-22T15:37:57Z</time>
      </trkpt>
      <trkpt lat="47.16535" lon="5.49721">
        <ele>240.947632</ele>
        <time>2012-11-22T15:38:01Z</time>
      </trkpt>
      <trkpt lat="47.16512" lon="5.49723">
        <ele>243.35083</ele>
        <time>2012-11-22T15:38:19Z</time>
      </trkpt>
      <trkpt lat="47.16483" lon="5.49725">
        <ele>245.75415</ele>
        <time>2012-11-22T15:38:44Z</time>
      </trkpt>
      <trkpt lat="47.16452" lon="5.4972">
        <ele>248.157593</ele>
        <time>2012-11-22T15:39:10Z</time>
      </trkpt>
      <trkpt lat="47.16443" lon="5.49717">
        <ele>249.118774</ele>
        <time>2012-11-22T15:39:17Z</time>
      </trkpt>
      <trkpt lat="47.16413" lon="5.49722">
        <ele>252.483398</ele>
        <time>2012-11-22T15:39:43Z</time>
      </trkpt>
      <trkpt lat="47.1639" lon="5.49736">
        <ele>255.36731</ele>
        <time>2012-11-22T15:40:03Z</time>
      </trkpt>
      <trkpt lat="47.1638" lon="5.49751">
        <ele>257.770752</ele>
        <time>2012-11-22T15:40:17Z</time>
      </trkpt>
      <trkpt lat="47.16376" lon="5.49759">
        <ele>258.251343</ele>
        <time>2012-11-22T15:40:34Z</time>
      </trkpt>
      <trkpt lat="47.16374" lon="5.49763">
        <ele>258.731934</ele>
        <time>2012-11-22T15:41:17Z</time>
      </trkpt>
      <trkpt lat="47.16376" lon="5.49772">
        <ele>260.654541</ele>
        <time>2012-11-22T15:41:57Z</time>
      </trkpt>
      <trkpt lat="47.16383" lon="5.49797">
        <ele>262.096558</ele>
        <time>2012-11-22T15:42:09Z</time>
      </trkpt>
      <trkpt lat="47.16384" lon="5.49801">
        <ele>262.096558</ele>
        <time>2012-11-22T15:42:11Z</time>
      </trkpt>
      <trkpt lat="47.16384" lon="5.49807">
        <ele>262.577148</ele>
        <time>2012-11-22T15:42:14Z</time>
      </trkpt>
      <trkpt lat="47.16386" lon="5.49814">
        <ele>263.057861</ele>
        <time>2012-11-22T15:42:18Z</time>
      </trkpt>
      <trkpt lat="47.16386" lon="5.4982">
        <ele>264.019287</ele>
        <time>2012-11-22T15:42:22Z</time>
      </trkpt>
      <trkpt lat="47.16386" lon="5.49828">
        <ele>264.019287</ele>
        <time>2012-11-22T15:42:27Z</time>
      </trkpt>
      <trkpt lat="47.16386" lon="5.49836">
        <ele>264.980591</ele>
        <time>2012-11-22T15:42:32Z</time>
      </trkpt>
      <trkpt lat="47.16385" lon="5.49845">
        <ele>265.941895</ele>
        <time>2012-11-22T15:42:39Z</time>
      </trkpt>
      <trkpt lat="47.16372" lon="5.49865">
        <ele>267.864502</ele>
        <time>2012-11-22T15:42:52Z</time>
      </trkpt>
      <trkpt lat="47.16373" lon="5.49895">
        <ele>270.748413</ele>
        <time>2012-11-22T15:43:11Z</time>
      </trkpt>
      <trkpt lat="47.16371" lon="5.49902">
        <ele>271.709717</ele>
        <time>2012-11-22T15:43:17Z</time>
      </trkpt>
      <trkpt lat="47.16371" lon="5.49905">
        <ele>271.709717</ele>
        <time>2012-11-22T15:43:20Z</time>
      </trkpt>
      <trkpt lat="47.16367" lon="5.49916">
        <ele>273.151855</ele>
        <time>2012-11-22T15:43:29Z</time>
      </trkpt>
      <trkpt lat="47.16359" lon="5.49929">
        <ele>275.074463</ele>
        <time>2012-11-22T15:43:42Z</time>
      </trkpt>
      <trkpt lat="47.16345" lon="5.49934">
        <ele>276.99707</ele>
        <time>2012-11-22T15:43:56Z</time>
      </trkpt>
      <trkpt lat="47.16328" lon="5.49937">
        <ele>279.400269</ele>
        <time>2012-11-22T15:44:14Z</time>
      </trkpt>
      <trkpt lat="47.16322" lon="5.49938">
        <ele>280.361694</ele>
        <time>2012-11-22T15:44:20Z</time>
      </trkpt>
      <trkpt lat="47.16319" lon="5.49938">
        <ele>280.842407</ele>
        <time>2012-11-22T15:44:22Z</time>
      </trkpt>
      <trkpt lat="47.16303" lon="5.49942">
        <ele>282.284302</ele>
        <time>2012-11-22T15:44:35Z</time>
      </trkpt>
      <trkpt lat="47.16298" lon="5.49947">
        <ele>283.245605</ele>
        <time>2012-11-22T15:44:41Z</time>
      </trkpt>
      <trkpt lat="47.16292" lon="5.49953">
        <ele>283.726196</ele>
        <time>2012-11-22T15:44:46Z</time>
      </trkpt>
      <trkpt lat="47.16276" lon="5.49972">
        <ele>286.129517</ele>
        <time>2012-11-22T15:45:03Z</time>
      </trkpt>
      <trkpt lat="47.16273" lon="5.49973">
        <ele>286.129517</ele>
        <time>2012-11-22T15:45:06Z</time>
      </trkpt>
      <trkpt lat="47.16248" lon="5.49974">
        <ele>287.09082</ele>
        <time>2012-11-22T15:45:27Z</time>
      </trkpt>
      <trkpt lat="47.16244" lon="5.50006">
        <ele>288.532959</ele>
        <time>2012-11-22T15:45:42Z</time>
      </trkpt>
      <trkpt lat="47.16252" lon="5.50029">
        <ele>290.455566</ele>
        <time>2012-11-22T15:45:57Z</time>
      </trkpt>
      <trkpt lat="47.16267" lon="5.50052">
        <ele>292.378174</ele>
        <time>2012-11-22T15:46:14Z</time>
      </trkpt>
      <trkpt lat="47.16281" lon="5.50092">
        <ele>295.261963</ele>
        <time>2012-11-22T15:46:38Z</time>
      </trkpt>
      <trkpt lat="47.1629" lon="5.50134">
        <ele>297.665405</ele>
        <time>2012-11-22T15:47:00Z</time>
      </trkpt>
      <trkpt lat="47.1629" lon="5.50173">
        <ele>300.068726</ele>
        <time>2012-11-22T15:47:22Z</time>
      </trkpt>
      <trkpt lat="47.16276" lon="5.5022">
        <ele>302.952515</ele>
        <time>2012-11-22T15:47:49Z</time>
      </trkpt>
      <trkpt lat="47.16267" lon="5.50264">
        <ele>305.355957</ele>
        <time>2012-11-22T15:48:14Z</time>
      </trkpt>
      <trkpt lat="47.16266" lon="5.50286">
        <ele>307.278564</ele>
        <time>2012-11-22T15:48:32Z</time>
      </trkpt>
      <trkpt lat="47.16252" lon="5.50286">
        <ele>309.681885</ele>
        <time>2012-11-22T15:57:51Z</time>
      </trkpt>
      <trkpt lat="47.16241" lon="5.50282">
        <ele>310.162476</ele>
        <time>2012-11-22T15:58:00Z</time>
      </trkpt>
      <trkpt lat="47.16219" lon="5.50273">
        <ele>310.162476</ele>
        <time>2012-11-22T15:58:19Z</time>
      </trkpt>
      <trkpt lat="47.1619" lon="5.50264">
        <ele>309.681885</ele>
        <time>2012-11-22T15:58:42Z</time>
      </trkpt>
      <trkpt lat="47.16158" lon="5.5025">
        <ele>309.681885</ele>
        <time>2012-11-22T15:59:09Z</time>
      </trkpt>
      <trkpt lat="47.16124" lon="5.5023">
        <ele>308.720459</ele>
        <time>2012-11-22T15:59:35Z</time>
      </trkpt>
      <trkpt lat="47.16092" lon="5.50209">
        <ele>308.720459</ele>
        <time>2012-11-22T16:00:01Z</time>
      </trkpt>
      <trkpt lat="47.16062" lon="5.50189">
        <ele>308.720459</ele>
        <time>2012-11-22T16:00:25Z</time>
      </trkpt>
      <trkpt lat="47.16036" lon="5.50172">
        <ele>311.123779</ele>
        <time>2012-11-22T16:00:49Z</time>
      </trkpt>
      <trkpt lat="47.16019" lon="5.5016">
        <ele>312.565796</ele>
        <time>2012-11-22T16:01:08Z</time>
      </trkpt>
      <trkpt lat="47.16018" lon="5.50159">
        <ele>312.565796</ele>
        <time>2012-11-22T16:01:09Z</time>
      </trkpt>
      <trkpt lat="47.16013" lon="5.50156">
        <ele>312.565796</ele>
        <time>2012-11-22T16:01:13Z</time>
      </trkpt>
      <trkpt lat="47.15992" lon="5.5013">
        <ele>311.604492</ele>
        <time>2012-11-22T16:01:36Z</time>
      </trkpt>
      <trkpt lat="47.15987" lon="5.5011">
        <ele>310.643066</ele>
        <time>2012-11-22T16:01:49Z</time>
      </trkpt>
      <trkpt lat="47.15974" lon="5.50066">
        <ele>308.239868</ele>
        <time>2012-11-22T16:02:12Z</time>
      </trkpt>
      <trkpt lat="47.15967" lon="5.5004">
        <ele>307.278564</ele>
        <time>2012-11-22T16:02:28Z</time>
      </trkpt>
      <trkpt lat="47.15962" lon="5.50016">
        <ele>305.83667</ele>
        <time>2012-11-22T16:02:44Z</time>
      </trkpt>
      <trkpt lat="47.15958" lon="5.50003">
        <ele>305.355957</ele>
        <time>2012-11-22T16:02:48Z</time>
      </trkpt>
      <trkpt lat="47.15953" lon="5.49976">
        <ele>303.433228</ele>
        <time>2012-11-22T16:03:04Z</time>
      </trkpt>
      <trkpt lat="47.15947" lon="5.49949">
        <ele>303.433228</ele>
        <time>2012-11-22T16:03:17Z</time>
      </trkpt>
      <trkpt lat="47.15938" lon="5.49904">
        <ele>301.029907</ele>
        <time>2012-11-22T16:03:44Z</time>
      </trkpt>
      <trkpt lat="47.15933" lon="5.49883">
        <ele>298.626709</ele>
        <time>2012-11-22T16:03:59Z</time>
      </trkpt>
      <trkpt lat="47.15933" lon="5.4988">
        <ele>301.029907</ele>
        <time>2012-11-22T16:04:02Z</time>
      </trkpt>
      <trkpt lat="47.15931" lon="5.49876">
        <ele>299.1073</ele>
        <time>2012-11-22T16:04:05Z</time>
      </trkpt>
      <trkpt lat="47.15921" lon="5.49867">
        <ele>298.626709</ele>
        <time>2012-11-22T16:04:12Z</time>
      </trkpt>
      <trkpt lat="47.15897" lon="5.49866">
        <ele>301.029907</ele>
        <time>2012-11-22T16:04:32Z</time>
      </trkpt>
      <trkpt lat="47.15869" lon="5.49868">
        <ele>304.394653</ele>
        <time>2012-11-22T16:04:56Z</time>
      </trkpt>
      <trkpt lat="47.15853" lon="5.49867">
        <ele>305.83667</ele>
        <time>2012-11-22T16:05:10Z</time>
      </trkpt>
      <trkpt lat="47.15833" lon="5.49862">
        <ele>306.797852</ele>
        <time>2012-11-22T16:05:27Z</time>
      </trkpt>
      <trkpt lat="47.15815" lon="5.49858">
        <ele>307.278564</ele>
        <time>2012-11-22T16:05:42Z</time>
      </trkpt>
      <trkpt lat="47.15793" lon="5.49849">
        <ele>307.759277</ele>
        <time>2012-11-22T16:06:00Z</time>
      </trkpt>
      <trkpt lat="47.15755" lon="5.49828">
        <ele>308.239868</ele>
        <time>2012-11-22T16:06:28Z</time>
      </trkpt>
      <trkpt lat="47.15726" lon="5.49808">
        <ele>308.239868</ele>
        <time>2012-11-22T16:06:52Z</time>
      </trkpt>
      <trkpt lat="47.15695" lon="5.4979">
        <ele>308.239868</ele>
        <time>2012-11-22T16:07:15Z</time>
      </trkpt>
      <trkpt lat="47.15668" lon="5.49772">
        <ele>310.162476</ele>
        <time>2012-11-22T16:07:38Z</time>
      </trkpt>
      <trkpt lat="47.15645" lon="5.49756">
        <ele>311.123779</ele>
        <time>2012-11-22T16:07:59Z</time>
      </trkpt>
      <trkpt lat="47.15617" lon="5.49737">
        <ele>310.643066</ele>
        <time>2012-11-22T16:08:22Z</time>
      </trkpt>
      <trkpt lat="47.15611" lon="5.49733">
        <ele>310.643066</ele>
        <time>2012-11-22T16:08:27Z</time>
      </trkpt>
      <trkpt lat="47.15586" lon="5.49717">
        <ele>310.162476</ele>
        <time>2012-11-22T16:08:49Z</time>
      </trkpt>
      <trkpt lat="47.15561" lon="5.49696">
        <ele>309.201172</ele>
        <time>2012-11-22T16:09:10Z</time>
      </trkpt>
      <trkpt lat="47.15532" lon="5.49678">
        <ele>308.239868</ele>
        <time>2012-11-22T16:09:34Z</time>
      </trkpt>
      <trkpt lat="47.15508" lon="5.49659">
        <ele>307.278564</ele>
        <time>2012-11-22T16:09:54Z</time>
      </trkpt>
      <trkpt lat="47.15479" lon="5.49636">
        <ele>306.317261</ele>
        <time>2012-11-22T16:10:17Z</time>
      </trkpt>
      <trkpt lat="47.15446" lon="5.49607">
        <ele>304.875244</ele>
        <time>2012-11-22T16:10:45Z</time>
      </trkpt>
      <trkpt lat="47.1542" lon="5.49588">
        <ele>304.394653</ele>
        <time>2012-11-22T16:11:06Z</time>
      </trkpt>
      <trkpt lat="47.15399" lon="5.49572">
        <ele>302.952515</ele>
        <time>2012-11-22T16:11:23Z</time>
      </trkpt>
      <trkpt lat="47.15397" lon="5.4957">
        <ele>302.952515</ele>
        <time>2012-11-22T16:11:25Z</time>
      </trkpt>
      <trkpt lat="47.15377" lon="5.49558">
        <ele>301.029907</ele>
        <time>2012-11-22T16:11:41Z</time>
      </trkpt>
      <trkpt lat="47.15359" lon="5.49542">
        <ele>300.068726</ele>
        <time>2012-11-22T16:11:57Z</time>
      </trkpt>
      <trkpt lat="47.1533" lon="5.49516">
        <ele>297.184692</ele>
        <time>2012-11-22T16:12:21Z</time>
      </trkpt>
      <trkpt lat="47.15306" lon="5.49496">
        <ele>294.781372</ele>
        <time>2012-11-22T16:12:43Z</time>
      </trkpt>
      <trkpt lat="47.15277" lon="5.49475">
        <ele>292.378174</ele>
        <time>2012-11-22T16:13:06Z</time>
      </trkpt>
      <trkpt lat="47.15251" lon="5.49455">
        <ele>289.494141</ele>
        <time>2012-11-22T16:13:28Z</time>
      </trkpt>
      <trkpt lat="47.1523" lon="5.49438">
        <ele>286.610229</ele>
        <time>2012-11-22T16:13:48Z</time>
      </trkpt>
      <trkpt lat="47.15208" lon="5.49422">
        <ele>284.206909</ele>
        <time>2012-11-22T16:14:08Z</time>
      </trkpt>
      <trkpt lat="47.15195" lon="5.49413">
        <ele>282.284302</ele>
        <time>2012-11-22T16:14:20Z</time>
      </trkpt>
      <trkpt lat="47.15179" lon="5.49403">
        <ele>280.361694</ele>
        <time>2012-11-22T16:14:37Z</time>
      </trkpt>
      <trkpt lat="47.15162" lon="5.49389">
        <ele>277.958252</ele>
        <time>2012-11-22T16:14:55Z</time>
      </trkpt>
      <trkpt lat="47.1516" lon="5.49389">
        <ele>277.958252</ele>
        <time>2012-11-22T16:14:57Z</time>
      </trkpt>
      <trkpt lat="47.15149" lon="5.49384">
        <ele>276.516357</ele>
        <time>2012-11-22T16:15:08Z</time>
      </trkpt>
      <trkpt lat="47.15136" lon="5.49371">
        <ele>275.555054</ele>
        <time>2012-11-22T16:15:19Z</time>
      </trkpt>
      <trkpt lat="47.1511" lon="5.49343">
        <ele>273.151855</ele>
        <time>2012-11-22T16:15:40Z</time>
      </trkpt>
      <trkpt lat="47.15099" lon="5.49332">
        <ele>271.709717</ele>
        <time>2012-11-22T16:15:50Z</time>
      </trkpt>
      <trkpt lat="47.15095" lon="5.4933">
        <ele>271.709717</ele>
        <time>2012-11-22T16:15:53Z</time>
      </trkpt>
      <trkpt lat="47.15091" lon="5.4933">
        <ele>271.229126</ele>
        <time>2012-11-22T16:15:57Z</time>
      </trkpt>
      <trkpt lat="47.15086" lon="5.49327">
        <ele>271.229126</ele>
        <time>2012-11-22T16:16:01Z</time>
      </trkpt>
      <trkpt lat="47.15069" lon="5.49307">
        <ele>269.787109</ele>
        <time>2012-11-22T16:16:14Z</time>
      </trkpt>
      <trkpt lat="47.15062" lon="5.49302">
        <ele>269.306519</ele>
        <time>2012-11-22T16:16:20Z</time>
      </trkpt>
      <trkpt lat="47.15043" lon="5.49285">
        <ele>268.345093</ele>
        <time>2012-11-22T16:16:38Z</time>
      </trkpt>
      <trkpt lat="47.15017" lon="5.49267">
        <ele>266.903198</ele>
        <time>2012-11-22T16:17:00Z</time>
      </trkpt>
      <trkpt lat="47.14986" lon="5.4924">
        <ele>265.941895</ele>
        <time>2012-11-22T16:17:24Z</time>
      </trkpt>
      <trkpt lat="47.14976" lon="5.49232">
        <ele>264.980591</ele>
        <time>2012-11-22T16:17:35Z</time>
      </trkpt>
      <trkpt lat="47.14958" lon="5.49221">
        <ele>264.019287</ele>
        <time>2012-11-22T16:17:51Z</time>
      </trkpt>
      <trkpt lat="47.14943" lon="5.49214">
        <ele>263.057861</ele>
        <time>2012-11-22T16:18:06Z</time>
      </trkpt>
      <trkpt lat="47.14941" lon="5.49219">
        <ele>263.538574</ele>
        <time>2012-11-22T16:18:09Z</time>
      </trkpt>
      <trkpt lat="47.1494" lon="5.49227">
        <ele>263.057861</ele>
        <time>2012-11-22T16:18:13Z</time>
      </trkpt>
      <trkpt lat="47.14946" lon="5.49241">
        <ele>262.577148</ele>
        <time>2012-11-22T16:18:22Z</time>
      </trkpt>
      <trkpt lat="47.1495" lon="5.49247">
        <ele>263.057861</ele>
        <time>2012-11-22T16:18:26Z</time>
      </trkpt>
      <trkpt lat="47.14953" lon="5.49259">
        <ele>263.057861</ele>
        <time>2012-11-22T16:18:33Z</time>
      </trkpt>
      <trkpt lat="47.14957" lon="5.49266">
        <ele>263.057861</ele>
        <time>2012-11-22T16:18:38Z</time>
      </trkpt>
      <trkpt lat="47.14977" lon="5.49295">
        <ele>264.019287</ele>
        <time>2012-11-22T16:18:59Z</time>
      </trkpt>
      <trkpt lat="47.14985" lon="5.49307">
        <ele>264.499878</ele>
        <time>2012-11-22T16:19:08Z</time>
      </trkpt>
      <trkpt lat="47.15001" lon="5.4933">
        <ele>265.461304</ele>
        <time>2012-11-22T16:19:26Z</time>
      </trkpt>
      <trkpt lat="47.15005" lon="5.49333">
        <ele>265.461304</ele>
        <time>2012-11-22T16:19:29Z</time>
      </trkpt>
      <trkpt lat="47.15021" lon="5.49357">
        <ele>266.422485</ele>
        <time>2012-11-22T16:19:46Z</time>
      </trkpt>
      <trkpt lat="47.15025" lon="5.49362">
        <ele>266.903198</ele>
        <time>2012-11-22T16:19:50Z</time>
      </trkpt>
      <trkpt lat="47.15027" lon="5.49364">
        <ele>266.903198</ele>
        <time>2012-11-22T16:19:52Z</time>
      </trkpt>
      <trkpt lat="47.15032" lon="5.49369">
        <ele>266.903198</ele>
        <time>2012-11-22T16:19:58Z</time>
      </trkpt>
      <trkpt lat="47.15036" lon="5.49373">
        <ele>267.383911</ele>
        <time>2012-11-22T16:20:02Z</time>
      </trkpt>
      <trkpt lat="47.15051" lon="5.49393">
        <ele>267.864502</ele>
        <time>2012-11-22T16:20:17Z</time>
      </trkpt>
      <trkpt lat="47.15057" lon="5.49399">
        <ele>267.864502</ele>
        <time>2012-11-22T16:20:22Z</time>
      </trkpt>
      <trkpt lat="47.15062" lon="5.49403">
        <ele>267.864502</ele>
        <time>2012-11-22T16:20:25Z</time>
      </trkpt>
      <trkpt lat="47.15074" lon="5.49419">
        <ele>268.825806</ele>
        <time>2012-11-22T16:20:39Z</time>
      </trkpt>
      <trkpt lat="47.15072" lon="5.49458">
        <ele>267.383911</ele>
        <time>2012-11-22T16:20:59Z</time>
      </trkpt>
      <trkpt lat="47.15064" lon="5.4947">
        <ele>265.941895</ele>
        <time>2012-11-22T16:21:06Z</time>
      </trkpt>
      <trkpt lat="47.15052" lon="5.49481">
        <ele>263.538574</ele>
        <time>2012-11-22T16:21:21Z</time>
      </trkpt>
      <trkpt lat="47.15047" lon="5.49483">
        <ele>262.577148</ele>
        <time>2012-11-22T16:21:25Z</time>
      </trkpt>
      <trkpt lat="47.15029" lon="5.49498">
        <ele>259.212646</ele>
        <time>2012-11-22T16:21:42Z</time>
      </trkpt>
      <trkpt lat="47.15013" lon="5.49511">
        <ele>256.328735</ele>
        <time>2012-11-22T16:21:57Z</time>
      </trkpt>
      <trkpt lat="47.15011" lon="5.49513">
        <ele>256.328735</ele>
        <time>2012-11-22T16:21:59Z</time>
      </trkpt>
      <trkpt lat="47.15006" lon="5.49517">
        <ele>254.886597</ele>
        <time>2012-11-22T16:22:05Z</time>
      </trkpt>
      <trkpt lat="47.14996" lon="5.49533">
        <ele>253.925415</ele>
        <time>2012-11-22T16:22:25Z</time>
      </trkpt>
      <trkpt lat="47.14989" lon="5.49538">
        <ele>253.444702</ele>
        <time>2012-11-22T16:22:45Z</time>
      </trkpt>
      <trkpt lat="47.14984" lon="5.49538">
        <ele>253.444702</ele>
        <time>2012-11-22T16:23:05Z</time>
      </trkpt>
      <trkpt lat="47.14971" lon="5.49558">
        <ele>251.522095</ele>
        <time>2012-11-22T16:23:23Z</time>
      </trkpt>
      <trkpt lat="47.14958" lon="5.49587">
        <ele>249.599487</ele>
        <time>2012-11-22T16:23:44Z</time>
      </trkpt>
      <trkpt lat="47.14946" lon="5.49604">
        <ele>247.196045</ele>
        <time>2012-11-22T16:24:00Z</time>
      </trkpt>
      <trkpt lat="47.14925" lon="5.49623">
        <ele>245.75415</ele>
        <time>2012-11-22T16:24:21Z</time>
      </trkpt>
      <trkpt lat="47.14909" lon="5.49638">
        <ele>244.792847</ele>
        <time>2012-11-22T16:24:37Z</time>
      </trkpt>
      <trkpt lat="47.14884" lon="5.49668">
        <ele>243.831543</ele>
        <time>2012-11-22T16:25:02Z</time>
      </trkpt>
      <trkpt lat="47.14857" lon="5.49644">
        <ele>241.908936</ele>
        <time>2012-11-22T16:25:26Z</time>
      </trkpt>
      <trkpt lat="47.14832" lon="5.49611">
        <ele>239.986206</ele>
        <time>2012-11-22T16:25:52Z</time>
      </trkpt>
      <trkpt lat="47.14811" lon="5.4958">
        <ele>238.063599</ele>
        <time>2012-11-22T16:26:16Z</time>
      </trkpt>
      <trkpt lat="47.14789" lon="5.49553">
        <ele>236.140991</ele>
        <time>2012-11-22T16:26:39Z</time>
      </trkpt>
      <trkpt lat="47.14768" lon="5.49532">
        <ele>233.737671</ele>
        <time>2012-11-22T16:26:59Z</time>
      </trkpt>
      <trkpt lat="47.14742" lon="5.49514">
        <ele>231.334351</ele>
        <time>2012-11-22T16:27:22Z</time>
      </trkpt>
      <trkpt lat="47.14722" lon="5.49504">
        <ele>229.892334</ele>
        <time>2012-11-22T16:27:38Z</time>
      </trkpt>
      <trkpt lat="47.14703" lon="5.49498">
        <ele>228.450439</ele>
        <time>2012-11-22T16:27:51Z</time>
      </trkpt>
      <trkpt lat="47.14689" lon="5.49495">
        <ele>228.450439</ele>
        <time>2012-11-22T16:28:02Z</time>
      </trkpt>
      <trkpt lat="47.14672" lon="5.49492">
        <ele>227.969727</ele>
        <time>2012-11-22T16:28:17Z</time>
      </trkpt>
      <trkpt lat="47.14658" lon="5.4949">
        <ele>227.969727</ele>
        <time>2012-11-22T16:28:30Z</time>
      </trkpt>
      <trkpt lat="47.14651" lon="5.49494">
        <ele>227.969727</ele>
        <time>2012-11-22T16:28:35Z</time>
      </trkpt>
      <trkpt lat="47.14638" lon="5.49515">
        <ele>228.450439</ele>
        <time>2012-11-22T16:28:49Z</time>
      </trkpt>
      <trkpt lat="47.14636" lon="5.49522">
        <ele>228.450439</ele>
        <time>2012-11-22T16:28:52Z</time>
      </trkpt>
      <trkpt lat="47.14619" lon="5.49566">
        <ele>229.411743</ele>
        <time>2012-11-22T16:29:12Z</time>
      </trkpt>
      <trkpt lat="47.146" lon="5.49596">
        <ele>230.373047</ele>
        <time>2012-11-22T16:29:31Z</time>
      </trkpt>
      <trkpt lat="47.146" lon="5.49597">
        <ele>230.85376</ele>
        <time>2012-11-22T16:29:32Z</time>
      </trkpt>
      <trkpt lat="47.14597" lon="5.496">
        <ele>230.85376</ele>
        <time>2012-11-22T16:29:34Z</time>
      </trkpt>
      <trkpt lat="47.14585" lon="5.49612">
        <ele>231.814941</ele>
        <time>2012-11-22T16:29:45Z</time>
      </trkpt>
      <trkpt lat="47.14569" lon="5.49602">
        <ele>233.737671</ele>
        <time>2012-11-22T16:29:59Z</time>
      </trkpt>
      <trkpt lat="47.14561" lon="5.49591">
        <ele>234.218384</ele>
        <time>2012-11-22T16:30:08Z</time>
      </trkpt>
      <trkpt lat="47.14546" lon="5.49568">
        <ele>235.179688</ele>
        <time>2012-11-22T16:30:23Z</time>
      </trkpt>
      <trkpt lat="47.14527" lon="5.49538">
        <ele>236.621704</ele>
        <time>2012-11-22T16:30:43Z</time>
      </trkpt>
      <trkpt lat="47.14512" lon="5.49521">
        <ele>237.102295</ele>
        <time>2012-11-22T16:30:59Z</time>
      </trkpt>
      <trkpt lat="47.14506" lon="5.49522">
        <ele>237.102295</ele>
        <time>2012-11-22T16:31:03Z</time>
      </trkpt>
      <trkpt lat="47.145" lon="5.49527">
        <ele>236.621704</ele>
        <time>2012-11-22T16:31:08Z</time>
      </trkpt>
      <trkpt lat="47.14496" lon="5.49537">
        <ele>236.140991</ele>
        <time>2012-11-22T16:31:15Z</time>
      </trkpt>
      <trkpt lat="47.14496" lon="5.49544">
        <ele>235.660278</ele>
        <time>2012-11-22T16:31:19Z</time>
      </trkpt>
      <trkpt lat="47.14495" lon="5.49548">
        <ele>235.179688</ele>
        <time>2012-11-22T16:31:21Z</time>
      </trkpt>
      <trkpt lat="47.14485" lon="5.49569">
        <ele>233.737671</ele>
        <time>2012-11-22T16:31:36Z</time>
      </trkpt>
      <trkpt lat="47.14478" lon="5.4959">
        <ele>231.814941</ele>
        <time>2012-11-22T16:31:49Z</time>
      </trkpt>
      <trkpt lat="47.1447" lon="5.49604">
        <ele>230.85376</ele>
        <time>2012-11-22T16:32:00Z</time>
      </trkpt>
      <trkpt lat="47.14465" lon="5.49615">
        <ele>229.411743</ele>
        <time>2012-11-22T16:32:07Z</time>
      </trkpt>
      <trkpt lat="47.14456" lon="5.49642">
        <ele>227.489136</ele>
        <time>2012-11-22T16:32:23Z</time>
      </trkpt>
      <trkpt lat="47.1444" lon="5.49668">
        <ele>224.605225</ele>
        <time>2012-11-22T16:32:46Z</time>
      </trkpt>
      <trkpt lat="47.14425" lon="5.49696">
        <ele>222.682495</ele>
        <time>2012-11-22T16:33:05Z</time>
      </trkpt>
      <trkpt lat="47.14406" lon="5.49724">
        <ele>222.201782</ele>
        <time>2012-11-22T16:33:26Z</time>
      </trkpt>
      <trkpt lat="47.14391" lon="5.49738">
        <ele>222.201782</ele>
        <time>2012-11-22T16:33:40Z</time>
      </trkpt>
      <trkpt lat="47.14387" lon="5.49738">
        <ele>222.201782</ele>
        <time>2012-11-22T16:33:43Z</time>
      </trkpt>
      <trkpt lat="47.14373" lon="5.49734">
        <ele>222.201782</ele>
        <time>2012-11-22T16:33:56Z</time>
      </trkpt>
      <trkpt lat="47.14364" lon="5.49736">
        <ele>222.201782</ele>
        <time>2012-11-22T16:34:04Z</time>
      </trkpt>
      <trkpt lat="47.14359" lon="5.49728">
        <ele>222.201782</ele>
        <time>2012-11-22T16:34:08Z</time>
      </trkpt>
      <trkpt lat="47.14332" lon="5.49706">
        <ele>221.721191</ele>
        <time>2012-11-22T16:34:28Z</time>
      </trkpt>
      <trkpt lat="47.14307" lon="5.49682">
        <ele>221.240601</ele>
        <time>2012-11-22T16:34:50Z</time>
      </trkpt>
      <trkpt lat="47.14294" lon="5.4967">
        <ele>220.759888</ele>
        <time>2012-11-22T16:35:02Z</time>
      </trkpt>
      <trkpt lat="47.14289" lon="5.49665">
        <ele>220.759888</ele>
        <time>2012-11-22T16:35:07Z</time>
      </trkpt>
      <trkpt lat="47.14284" lon="5.49662">
        <ele>220.759888</ele>
        <time>2012-11-22T16:35:10Z</time>
      </trkpt>
      <trkpt lat="47.14266" lon="5.49615">
        <ele>220.279175</ele>
        <time>2012-11-22T16:35:35Z</time>
      </trkpt>
      <trkpt lat="47.14261" lon="5.49601">
        <ele>220.759888</ele>
        <time>2012-11-22T16:35:56Z</time>
      </trkpt>
      <trkpt lat="47.14261" lon="5.49599">
        <ele>220.759888</ele>
        <time>2012-11-22T16:36:41Z</time>
      </trkpt>
      <trkpt lat="47.14271" lon="5.49581">
        <ele>221.721191</ele>
        <time>2012-11-22T16:39:15Z</time>
      </trkpt>
      <trkpt lat="47.1428" lon="5.49573">
        <ele>221.721191</ele>
        <time>2012-11-22T16:39:25Z</time>
      </trkpt>
      <trkpt lat="47.14297" lon="5.49561">
        <ele>222.682495</ele>
        <time>2012-11-22T16:39:42Z</time>
      </trkpt>
      <trkpt lat="47.14317" lon="5.49542">
        <ele>224.124512</ele>
        <time>2012-11-22T16:40:02Z</time>
      </trkpt>
      <trkpt lat="47.14321" lon="5.49536">
        <ele>224.605225</ele>
        <time>2012-11-22T16:40:07Z</time>
      </trkpt>
      <trkpt lat="47.1433" lon="5.49529">
        <ele>225.085938</ele>
        <time>2012-11-22T16:40:16Z</time>
      </trkpt>
      <trkpt lat="47.14334" lon="5.49526">
        <ele>225.085938</ele>
        <time>2012-11-22T16:40:19Z</time>
      </trkpt>
      <trkpt lat="47.14336" lon="5.49524">
        <ele>225.085938</ele>
        <time>2012-11-22T16:40:21Z</time>
      </trkpt>
      <trkpt lat="47.1434" lon="5.49521">
        <ele>225.085938</ele>
        <time>2012-11-22T16:40:25Z</time>
      </trkpt>
      <trkpt lat="47.14344" lon="5.49518">
        <ele>225.566528</ele>
        <time>2012-11-22T16:40:28Z</time>
      </trkpt>
      <trkpt lat="47.14369" lon="5.49503">
        <ele>227.969727</ele>
        <time>2012-11-22T16:40:48Z</time>
      </trkpt>
      <trkpt lat="47.14389" lon="5.49485">
        <ele>230.85376</ele>
        <time>2012-11-22T16:41:08Z</time>
      </trkpt>
      <trkpt lat="47.14416" lon="5.49467">
        <ele>232.776489</ele>
        <time>2012-11-22T16:41:27Z</time>
      </trkpt>
      <trkpt lat="47.14428" lon="5.49452">
        <ele>234.699097</ele>
        <time>2012-11-22T16:41:41Z</time>
      </trkpt>
      <trkpt lat="47.14434" lon="5.49443">
        <ele>235.660278</ele>
        <time>2012-11-22T16:41:49Z</time>
      </trkpt>
      <trkpt lat="47.1444" lon="5.49435">
        <ele>236.140991</ele>
        <time>2012-11-22T16:41:56Z</time>
      </trkpt>
      <trkpt lat="47.14453" lon="5.49417">
        <ele>238.063599</ele>
        <time>2012-11-22T16:42:13Z</time>
      </trkpt>
      <trkpt lat="47.1447" lon="5.49399">
        <ele>239.986206</ele>
        <time>2012-11-22T16:42:30Z</time>
      </trkpt>
      <trkpt lat="47.1448" lon="5.49381">
        <ele>241.428223</ele>
        <time>2012-11-22T16:42:45Z</time>
      </trkpt>
      <trkpt lat="47.14484" lon="5.49377">
        <ele>241.908936</ele>
        <time>2012-11-22T16:42:49Z</time>
      </trkpt>
      <trkpt lat="47.14488" lon="5.49369">
        <ele>242.389648</ele>
        <time>2012-11-22T16:42:55Z</time>
      </trkpt>
      <trkpt lat="47.14494" lon="5.49358">
        <ele>243.35083</ele>
        <time>2012-11-22T16:43:03Z</time>
      </trkpt>
      <trkpt lat="47.14499" lon="5.49352">
        <ele>243.831543</ele>
        <time>2012-11-22T16:43:09Z</time>
      </trkpt>
      <trkpt lat="47.145" lon="5.49349">
        <ele>243.831543</ele>
        <time>2012-11-22T16:43:11Z</time>
      </trkpt>
      <trkpt lat="47.14501" lon="5.49345">
        <ele>244.312256</ele>
        <time>2012-11-22T16:43:14Z</time>
      </trkpt>
      <trkpt lat="47.14506" lon="5.49337">
        <ele>244.792847</ele>
        <time>2012-11-22T16:43:21Z</time>
      </trkpt>
      <trkpt lat="47.14515" lon="5.49327">
        <ele>245.75415</ele>
        <time>2012-11-22T16:43:30Z</time>
      </trkpt>
      <trkpt lat="47.14525" lon="5.49316">
        <ele>246.234863</ele>
        <time>2012-11-22T16:43:39Z</time>
      </trkpt>
      <trkpt lat="47.14529" lon="5.49301">
        <ele>246.715454</ele>
        <time>2012-11-22T16:43:47Z</time>
      </trkpt>
      <trkpt lat="47.1453" lon="5.49298">
        <ele>246.715454</ele>
        <time>2012-11-22T16:43:49Z</time>
      </trkpt>
      <trkpt lat="47.1454" lon="5.49283">
        <ele>247.196045</ele>
        <time>2012-11-22T16:44:02Z</time>
      </trkpt>
      <trkpt lat="47.14554" lon="5.49268">
        <ele>247.196045</ele>
        <time>2012-11-22T16:44:16Z</time>
      </trkpt>
      <trkpt lat="47.14564" lon="5.49258">
        <ele>247.676758</ele>
        <time>2012-11-22T16:44:27Z</time>
      </trkpt>
      <trkpt lat="47.1457" lon="5.49247">
        <ele>247.196045</ele>
        <time>2012-11-22T16:44:33Z</time>
      </trkpt>
      <trkpt lat="47.14567" lon="5.49208">
        <ele>246.715454</ele>
        <time>2012-11-22T16:44:55Z</time>
      </trkpt>
      <trkpt lat="47.14559" lon="5.49181">
        <ele>246.234863</ele>
        <time>2012-11-22T16:45:13Z</time>
      </trkpt>
      <trkpt lat="47.14545" lon="5.49141">
        <ele>245.273438</ele>
        <time>2012-11-22T16:45:33Z</time>
      </trkpt>
      <trkpt lat="47.14531" lon="5.49108">
        <ele>244.312256</ele>
        <time>2012-11-22T16:45:52Z</time>
      </trkpt>
      <trkpt lat="47.14512" lon="5.49066">
        <ele>241.908936</ele>
        <time>2012-11-22T16:46:17Z</time>
      </trkpt>
      <trkpt lat="47.14509" lon="5.49061">
        <ele>241.908936</ele>
        <time>2012-11-22T16:46:21Z</time>
      </trkpt>
      <trkpt lat="47.14508" lon="5.49058">
        <ele>241.908936</ele>
        <time>2012-11-22T16:46:23Z</time>
      </trkpt>
      <trkpt lat="47.14497" lon="5.49025">
        <ele>240.947632</ele>
        <time>2012-11-22T16:46:43Z</time>
      </trkpt>
      <trkpt lat="47.14485" lon="5.48995">
        <ele>239.986206</ele>
        <time>2012-11-22T16:47:01Z</time>
      </trkpt>
      <trkpt lat="47.14472" lon="5.4896">
        <ele>238.544312</ele>
        <time>2012-11-22T16:47:22Z</time>
      </trkpt>
      <trkpt lat="47.14458" lon="5.48933">
        <ele>238.544312</ele>
        <time>2012-11-22T16:47:38Z</time>
      </trkpt>
      <trkpt lat="47.14444" lon="5.48924">
        <ele>237.102295</ele>
        <time>2012-11-22T16:47:50Z</time>
      </trkpt>
      <trkpt lat="47.14422" lon="5.48924">
        <ele>235.660278</ele>
        <time>2012-11-22T16:48:07Z</time>
      </trkpt>
      <trkpt lat="47.14416" lon="5.48923">
        <ele>235.660278</ele>
        <time>2012-11-22T16:48:11Z</time>
      </trkpt>
      <trkpt lat="47.14409" lon="5.48927">
        <ele>235.660278</ele>
        <time>2012-11-22T16:48:27Z</time>
      </trkpt>
      <trkpt lat="47.14409" lon="5.48939">
        <ele>235.660278</ele>
        <time>2012-11-22T16:48:38Z</time>
      </trkpt>
      <trkpt lat="47.14409" lon="5.48943">
        <ele>235.660278</ele>
        <time>2012-11-22T16:48:41Z</time>
      </trkpt>
      <trkpt lat="47.1441" lon="5.48975">
        <ele>235.179688</ele>
        <time>2012-11-22T16:49:00Z</time>
      </trkpt>
      <trkpt lat="47.1441" lon="5.49008">
        <ele>234.699097</ele>
        <time>2012-11-22T16:49:23Z</time>
      </trkpt>
      <trkpt lat="47.14407" lon="5.49012">
        <ele>234.699097</ele>
        <time>2012-11-22T16:49:31Z</time>
      </trkpt>
      <trkpt lat="47.14399" lon="5.49026">
        <ele>233.737671</ele>
        <time>2012-11-22T16:49:48Z</time>
      </trkpt>
      <trkpt lat="47.14391" lon="5.4902">
        <ele>232.295776</ele>
        <time>2012-11-22T16:49:59Z</time>
      </trkpt>
      <trkpt lat="47.14372" lon="5.49003">
        <ele>229.411743</ele>
        <time>2012-11-22T16:50:22Z</time>
      </trkpt>
      <trkpt lat="47.14359" lon="5.48994">
        <ele>226.527832</ele>
        <time>2012-11-22T16:50:37Z</time>
      </trkpt>
      <trkpt lat="47.14337" lon="5.48977">
        <ele>224.605225</ele>
        <time>2012-11-22T16:50:59Z</time>
      </trkpt>
      <trkpt lat="47.1433" lon="5.48968">
        <ele>224.124512</ele>
        <time>2012-11-22T16:51:08Z</time>
      </trkpt>
      <trkpt lat="47.14322" lon="5.48955">
        <ele>223.643799</ele>
        <time>2012-11-22T16:51:20Z</time>
      </trkpt>
      <trkpt lat="47.14317" lon="5.48948">
        <ele>223.643799</ele>
        <time>2012-11-22T16:51:23Z</time>
      </trkpt>
      <trkpt lat="47.14295" lon="5.48943">
        <ele>223.163208</ele>
        <time>2012-11-22T16:51:41Z</time>
      </trkpt>
      <trkpt lat="47.14275" lon="5.48947">
        <ele>222.682495</ele>
        <time>2012-11-22T16:51:57Z</time>
      </trkpt>
      <trkpt lat="47.14239" lon="5.4895">
        <ele>222.201782</ele>
        <time>2012-11-22T16:52:24Z</time>
      </trkpt>
      <trkpt lat="47.14219" lon="5.48962">
        <ele>222.201782</ele>
        <time>2012-11-22T16:52:42Z</time>
      </trkpt>
      <trkpt lat="47.14209" lon="5.48989">
        <ele>221.721191</ele>
        <time>2012-11-22T16:53:00Z</time>
      </trkpt>
      <trkpt lat="47.142" lon="5.4901">
        <ele>220.759888</ele>
        <time>2012-11-22T16:53:13Z</time>
      </trkpt>
      <trkpt lat="47.14183" lon="5.4902">
        <ele>219.798584</ele>
        <time>2012-11-22T16:53:28Z</time>
      </trkpt>
      <trkpt lat="47.14182" lon="5.4902">
        <ele>219.798584</ele>
        <time>2012-11-22T16:53:30Z</time>
      </trkpt>
      <trkpt lat="47.14175" lon="5.49018">
        <ele>219.317993</ele>
        <time>2012-11-22T16:53:37Z</time>
      </trkpt>
      <trkpt lat="47.14171" lon="5.49016">
        <ele>219.317993</ele>
        <time>2012-11-22T16:53:41Z</time>
      </trkpt>
      <trkpt lat="47.14154" lon="5.49013">
        <ele>218.356567</ele>
        <time>2012-11-22T16:53:57Z</time>
      </trkpt>
      <trkpt lat="47.14151" lon="5.49012">
        <ele>218.356567</ele>
        <time>2012-11-22T16:54:00Z</time>
      </trkpt>
      <trkpt lat="47.1412" lon="5.49005">
        <ele>216.914673</ele>
        <time>2012-11-22T16:54:24Z</time>
      </trkpt>
      <trkpt lat="47.14117" lon="5.49003">
        <ele>216.914673</ele>
        <time>2012-11-22T16:54:27Z</time>
      </trkpt>
      <trkpt lat="47.14095" lon="5.48985">
        <ele>215.953247</ele>
        <time>2012-11-22T16:54:47Z</time>
      </trkpt>
      <trkpt lat="47.14071" lon="5.48971">
        <ele>214.991943</ele>
        <time>2012-11-22T16:55:08Z</time>
      </trkpt>
      <trkpt lat="47.14056" lon="5.48971">
        <ele>214.51123</ele>
        <time>2012-11-22T16:55:19Z</time>
      </trkpt>
      <trkpt lat="47.14048" lon="5.48968">
        <ele>214.51123</ele>
        <time>2012-11-22T16:55:25Z</time>
      </trkpt>
      <trkpt lat="47.14045" lon="5.48964">
        <ele>214.51123</ele>
        <time>2012-11-22T16:55:28Z</time>
      </trkpt>
      <trkpt lat="47.14042" lon="5.48963">
        <ele>214.51123</ele>
        <time>2012-11-22T16:55:32Z</time>
      </trkpt>
      <trkpt lat="47.14034" lon="5.48958">
        <ele>214.51123</ele>
        <time>2012-11-22T16:55:40Z</time>
      </trkpt>
      <trkpt lat="47.14032" lon="5.48955">
        <ele>214.51123</ele>
        <time>2012-11-22T16:55:42Z</time>
      </trkpt>
      <trkpt lat="47.1403" lon="5.48952">
        <ele>214.51123</ele>
        <time>2012-11-22T16:55:45Z</time>
      </trkpt>
      <trkpt lat="47.14028" lon="5.48952">
        <ele>214.51123</ele>
        <time>2012-11-22T16:55:47Z</time>
      </trkpt>
      <trkpt lat="47.1402" lon="5.48948">
        <ele>213.550049</ele>
        <time>2012-11-22T16:55:58Z</time>
      </trkpt>
      <trkpt lat="47.13987" lon="5.48956">
        <ele>212.588623</ele>
        <time>2012-11-22T16:56:19Z</time>
      </trkpt>
      <trkpt lat="47.13962" lon="5.48945">
        <ele>212.108032</ele>
        <time>2012-11-22T16:56:40Z</time>
      </trkpt>
      <trkpt lat="47.13937" lon="5.48921">
        <ele>211.627441</ele>
        <time>2012-11-22T16:57:03Z</time>
      </trkpt>
      <trkpt lat="47.1393" lon="5.4891">
        <ele>212.108032</ele>
        <time>2012-11-22T16:57:17Z</time>
      </trkpt>
      <trkpt lat="47.1393" lon="5.48904">
        <ele>211.627441</ele>
        <time>2012-11-22T16:57:36Z</time>
      </trkpt>
      <trkpt lat="47.13927" lon="5.48895">
        <ele>212.588623</ele>
        <time>2012-11-22T16:57:56Z</time>
      </trkpt>
      <trkpt lat="47.13927" lon="5.48895">
        <ele>212.108032</ele>
        <time>2012-11-22T16:58:05Z</time>
      </trkpt>
    </trkseg>
  </trk>
</gpx>